Observation data for Claude 12 Southwest on 06/24/2019      Previous  Date  Next       Current Mesonet Observations  Soil Data  Daily Summary Page  Observations in Plain Language
KCL1 240500Z 05011KT 19/13 A2998 RMK A01 T01860127  RH  069%=      5-min Rain = 0
KCL1 240501Z 05011KT 19/13 A2998 RMK A01 T01860126  RH  068%=      5-min Rain = 0
KCL1 240502Z 05011KT 19/13 A2998 RMK A01 T01850125  RH  068%=      5-min Rain = 0
KCL1 240503Z 05012KT 19/12 A2998 RMK A01 T01850124  RH  068%=      5-min Rain = 0
KCL1 240504Z 06013KT 19/13 A2998 RMK A01 T01850125  RH  068%=      5-min Rain = 0
KCL1 240505Z 05011KT 18/12 A2998 RMK A01 T01840124  RH  068%=      5-min Rain = 0
KCL1 240506Z 06012KT 18/12 A2998 RMK A01 T01840124  RH  068%=      5-min Rain = 0
KCL1 240507Z 06012KT 18/12 A2998 RMK A01 T01840124  RH  068%=      5-min Rain = 0
KCL1 240508Z 05012KT 18/12 A2998 RMK A01 T01830123  RH  068%=      5-min Rain = 0
KCL1 240509Z 06012KT 18/12 A2998 RMK A01 T01830123  RH  068%=      5-min Rain = 0
KCL1 240510Z 05014KT 18/12 A2998 RMK A01 T01830122  RH  068%=      5-min Rain = 0
KCL1 240511Z 06012KT 18/12 A2998 RMK A01 T01830122  RH  067%=      5-min Rain = 0
KCL1 240512Z 06013KT 18/12 A2998 RMK A01 T01830122  RH  067%=      5-min Rain = 0
KCL1 240513Z 05012KT 18/12 A2998 RMK A01 T01830121  RH  067%=      5-min Rain = 0
KCL1 240514Z 05013KT 18/12 A2998 RMK A01 T01830121  RH  067%=      5-min Rain = 0
KCL1 240515Z 05011G16KT 18/12 A2998 RMK A01 T01830121  RH  067%=      5-min Rain = 0
KCL1 240516Z 05011KT 18/12 A2998 RMK A01 T01820120  RH  067%=      5-min Rain = 0
KCL1 240517Z 05013KT 18/12 A2998 RMK A01 T01820121  RH  067%=      5-min Rain = 0
KCL1 240518Z 05011KT 18/12 A2998 RMK A01 T01810120  RH  067%=      5-min Rain = 0
KCL1 240519Z 05011KT 18/12 A2999 RMK A01 T01810120  RH  068%=      5-min Rain = 0
KCL1 240520Z 04011KT 18/12 A2999 RMK A01 T01810120  RH  068%=      5-min Rain = 0
KCL1 240521Z 04010KT 18/12 A2999 RMK A01 T01800120  RH  068%=      5-min Rain = 0
KCL1 240522Z 04010KT 18/12 A2999 RMK A01 T01800121  RH  068%=      5-min Rain = 0
KCL1 240523Z 04011KT 18/12 A2999 RMK A01 T01790121  RH  069%=      5-min Rain = 0
KCL1 240524Z 04011KT 18/12 A2999 RMK A01 T01780121  RH  069%=      5-min Rain = 0
KCL1 240525Z 05011KT 18/12 A2999 RMK A01 T01780121  RH  069%=      5-min Rain = 0
KCL1 240526Z 05011KT 18/12 A2999 RMK A01 T01770121  RH  070%=      5-min Rain = 0
KCL1 240527Z 04011KT 18/12 A2999 RMK A01 T01770122  RH  070%=      5-min Rain = 0
KCL1 240528Z 04011KT 18/12 A2999 RMK A01 T01770122  RH  070%=      5-min Rain = 0
KCL1 240529Z 05010KT 18/12 A2999 RMK A01 T01770122  RH  070%=      5-min Rain = 0
KCL1 240530Z 05012KT 18/12 A2999 RMK A01 T01770122  RH  070%=      5-min Rain = 0
KCL1 240531Z 04012KT 18/12 A2999 RMK A01 T01760122  RH  070%=      5-min Rain = 0
KCL1 240532Z 05012KT 18/12 A2999 RMK A01 T01760122  RH  070%=      5-min Rain = 0
KCL1 240533Z 04010KT 18/12 A2999 RMK A01 T01760122  RH  070%=      5-min Rain = 0
KCL1 240534Z 05010KT 18/12 A2999 RMK A01 T01760122  RH  071%=      5-min Rain = 0
KCL1 240535Z 05011KT 18/12 A2999 RMK A01 T01750122  RH  071%=      5-min Rain = 0
KCL1 240536Z 04010KT 18/12 A2999 RMK A01 T01750122  RH  071%=      5-min Rain = 0
KCL1 240537Z 04010KT 18/12 A2999 RMK A01 T01750122  RH  071%=      5-min Rain = 0
KCL1 240538Z 04010KT 17/12 A2999 RMK A01 T01740122  RH  071%=      5-min Rain = 0
KCL1 240539Z 05010KT 17/12 A2999 RMK A01 T01740122  RH  071%=      5-min Rain = 0
KCL1 240540Z 05011KT 17/12 A2999 RMK A01 T01730122  RH  072%=      5-min Rain = 0
KCL1 240541Z 05012KT 17/12 A2999 RMK A01 T01730122  RH  072%=      5-min Rain = 0
KCL1 240542Z 05011KT 17/12 A2999 RMK A01 T01730121  RH  072%=      5-min Rain = 0
KCL1 240543Z 04011KT 17/12 A2999 RMK A01 T01730121  RH  071%=      5-min Rain = 0
KCL1 240544Z 05010KT 17/12 A2999 RMK A01 T01730121  RH  071%=      5-min Rain = 0
KCL1 240545Z 05009KT 17/12 A2999 RMK A01 T01730121  RH  071%=      5-min Rain = 0
KCL1 240546Z 05012KT 17/12 A2999 RMK A01 T01730121  RH  072%=      5-min Rain = 0
KCL1 240547Z 04012KT 17/12 A2999 RMK A01 T01720120  RH  071%=      5-min Rain = 0
KCL1 240548Z 04013KT 17/12 A2999 RMK A01 T01720120  RH  071%=      5-min Rain = 0
KCL1 240549Z 04012KT 17/12 A2999 RMK A01 T01730119  RH  071%=      5-min Rain = 0
KCL1 240550Z 04010KT 17/12 A2999 RMK A01 T01730120  RH  071%=      5-min Rain = 0
KCL1 240551Z 04012KT 17/12 A2999 RMK A01 T01730120  RH  071%=      5-min Rain = 0
KCL1 240552Z 04012KT 17/12 A2999 RMK A01 T01730120  RH  071%=      5-min Rain = 0
KCL1 240553Z 04010KT 17/12 A2999 RMK A01 T01720120  RH  071%=      5-min Rain = 0
KCL1 240554Z 04010KT 17/12 A2999 RMK A01 T01720120  RH  072%=      5-min Rain = 0
KCL1 240555Z 04010KT 17/12 A2999 RMK A01 T01710120  RH  072%=      5-min Rain = 0
KCL1 240556Z 04011KT 17/12 A2999 RMK A01 T01710120  RH  072%=      5-min Rain = 0
KCL1 240557Z 04012KT 17/12 A2999 RMK A01 T01700120  RH  072%=      5-min Rain = 0
KCL1 240558Z 04011KT 17/12 A2999 RMK A01 T01700120  RH  072%=      5-min Rain = 0
KCL1 240559Z 04013KT 17/12 A2999 RMK A01 T01700120  RH  072%=      5-min Rain = 0
KCL1 240600Z 04011KT 17/12 A2999 RMK A01 T01700120  RH  072%=      5-min Rain = 0
KCL1 240601Z 04011KT 17/12 A2999 RMK A01 T01700119  RH  072%=      5-min Rain = 0
KCL1 240602Z 05010KT 17/12 A2999 RMK A01 T01700120  RH  072%=      5-min Rain = 0
KCL1 240603Z 04012KT 17/12 A2999 RMK A01 T01700120  RH  072%=      5-min Rain = 0
KCL1 240604Z 05011KT 17/12 A2999 RMK A01 T01710120  RH  072%=      5-min Rain = 0
KCL1 240605Z 04011KT 17/12 A2999 RMK A01 T01700120  RH  072%=      5-min Rain = 0
KCL1 240606Z 05011KT 17/12 A2999 RMK A01 T01700120  RH  072%=      5-min Rain = 0
KCL1 240607Z 04010KT 17/12 A2999 RMK A01 T01690120  RH  072%=      5-min Rain = 0
KCL1 240608Z 05011KT 17/12 A2999 RMK A01 T01700120  RH  073%=      5-min Rain = 0
KCL1 240609Z 05010KT 17/12 A2999 RMK A01 T01700120  RH  073%=      5-min Rain = 0
KCL1 240610Z 04010KT 17/12 A2999 RMK A01 T01690120  RH  073%=      5-min Rain = 0
KCL1 240611Z 04010KT 17/12 A2999 RMK A01 T01690120  RH  073%=      5-min Rain = 0
KCL1 240612Z 04010KT 17/12 A2999 RMK A01 T01690120  RH  073%=      5-min Rain = 0
KCL1 240613Z 05011KT 17/12 A2999 RMK A01 T01690120  RH  073%=      5-min Rain = 0
KCL1 240614Z 04010KT 17/12 A30 RMK A01 T01690120  RH  073%=      5-min Rain = 0
KCL1 240615Z 05010KT 17/12 A30 RMK A01 T01680120  RH  073%=      5-min Rain = 0
KCL1 240616Z 04009KT 17/12 A30 RMK A01 T01680120  RH  073%=      5-min Rain = 0
KCL1 240617Z 04010KT 17/12 A30 RMK A01 T01680120  RH  073%=      5-min Rain = 0
KCL1 240618Z 04010KT 17/12 A30 RMK A01 T01680120  RH  073%=      5-min Rain = 0
KCL1 240619Z 04010KT 17/12 A30 RMK A01 T01680120  RH  073%=      5-min Rain = 0
KCL1 240620Z 04009KT 17/12 A30 RMK A01 T01670119  RH  073%=      5-min Rain = 0
KCL1 240621Z 04009KT 17/12 A30 RMK A01 T01670119  RH  073%=      5-min Rain = 0
KCL1 240622Z 04010KT 17/12 A30 RMK A01 T01670118  RH  073%=      5-min Rain = 0
KCL1 240623Z 04009KT 17/12 A30 RMK A01 T01680118  RH  072%=      5-min Rain = 0
KCL1 240624Z 04010KT 17/12 A30 RMK A01 T01680118  RH  072%=      5-min Rain = 0
KCL1 240625Z 04009KT 17/12 A30 RMK A01 T01690118  RH  072%=      5-min Rain = 0
KCL1 240626Z 05009KT 17/12 A30 RMK A01 T01690118  RH  072%=      5-min Rain = 0
KCL1 240627Z 04009KT 17/12 A30 RMK A01 T01690117  RH  072%=      5-min Rain = 0
KCL1 240628Z 04010KT 17/12 A30 RMK A01 T01690117  RH  071%=      5-min Rain = 0
KCL1 240629Z 04010KT 17/12 A30 RMK A01 T01680116  RH  071%=      5-min Rain = 0
KCL1 240630Z 04009KT 17/12 A30 RMK A01 T01690116  RH  071%=      5-min Rain = 0
KCL1 240631Z 04009KT 17/12 A30 RMK A01 T01690116  RH  071%=      5-min Rain = 0
KCL1 240632Z 04010KT 17/12 A30 RMK A01 T01690116  RH  071%=      5-min Rain = 0
KCL1 240633Z 04009KT 17/12 A30 RMK A01 T01690116  RH  071%=      5-min Rain = 0
KCL1 240634Z 03009KT 17/12 A30 RMK A01 T01690115  RH  071%=      5-min Rain = 0
KCL1 240635Z 04009KT 17/12 A30 RMK A01 T01690115  RH  071%=      5-min Rain = 0
KCL1 240636Z 04010KT 17/12 A30 RMK A01 T01690115  RH  071%=      5-min Rain = 0
KCL1 240637Z 04009KT 17/12 A30 RMK A01 T01690115  RH  071%=      5-min Rain = 0
KCL1 240638Z 04009KT 17/12 A30 RMK A01 T01690115  RH  071%=      5-min Rain = 0
KCL1 240639Z 03009KT 17/12 A30 RMK A01 T01680115  RH  071%=      5-min Rain = 0
KCL1 240640Z 03009KT 17/12 A30 RMK A01 T01680115  RH  071%=      5-min Rain = 0
KCL1 240641Z 03009KT 17/12 A30 RMK A01 T01680116  RH  071%=      5-min Rain = 0
KCL1 240642Z 03010KT 17/12 A30 RMK A01 T01670116  RH  072%=      5-min Rain = 0
KCL1 240643Z 03009KT 17/12 A30 RMK A01 T01670116  RH  072%=      5-min Rain = 0
KCL1 240644Z 04009KT 17/12 A30 RMK A01 T01660116  RH  072%=      5-min Rain = 0
KCL1 240645Z 04010KT 17/12 A30 RMK A01 T01660116  RH  072%=      5-min Rain = 0
KCL1 240646Z 04010KT 17/12 A30 RMK A01 T01660116  RH  072%=      5-min Rain = 0
KCL1 240647Z 04010KT 17/12 A30 RMK A01 T01660116  RH  072%=      5-min Rain = 0
KCL1 240648Z 04010KT 17/12 A30 RMK A01 T01670116  RH  072%=      5-min Rain = 0
KCL1 240649Z 04010KT 17/12 A30 RMK A01 T01670116  RH  072%=      5-min Rain = 0
KCL1 240650Z 04010KT 17/12 A30 RMK A01 T01670116  RH  072%=      5-min Rain = 0
KCL1 240651Z 04010KT 17/12 A30 RMK A01 T01670117  RH  072%=      5-min Rain = 0
KCL1 240652Z 03009KT 17/12 A30 RMK A01 T01680117  RH  072%=      5-min Rain = 0
KCL1 240653Z 03009KT 17/12 A30 RMK A01 T01680117  RH  072%=      5-min Rain = 0
KCL1 240654Z 03010KT 17/12 A30 RMK A01 T01680117  RH  072%=      5-min Rain = 0
KCL1 240655Z 03008KT 17/12 A30 RMK A01 T01690117  RH  072%=      5-min Rain = 0
KCL1 240656Z 03008KT 17/12 A30 RMK A01 T01690117  RH  072%=      5-min Rain = 0
KCL1 240657Z 03008KT 17/12 A30 RMK A01 T01690117  RH  072%=      5-min Rain = 0
KCL1 240658Z 03009KT 17/12 A30 RMK A01 T01690117  RH  072%=      5-min Rain = 0
KCL1 240659Z 03010KT 17/12 A30 RMK A01 T01690118  RH  072%=      5-min Rain = 0
KCL1 240700Z 03010KT 17/12 A30 RMK A01 T01700118  RH  072%=      5-min Rain = 0
KCL1 240701Z 03010KT 17/12 A30 RMK A01 T01700118  RH  072%=      5-min Rain = 0
KCL1 240702Z 03010KT 17/12 A30 RMK A01 T01700119  RH  072%=      5-min Rain = 0
KCL1 240703Z 03010KT 17/12 A30 RMK A01 T01710119  RH  072%=      5-min Rain = 0
KCL1 240704Z 03010KT 17/12 A30 RMK A01 T01700119  RH  072%=      5-min Rain = 0
KCL1 240705Z 03009KT 17/12 A30 RMK A01 T01700119  RH  072%=      5-min Rain = 0
KCL1 240706Z 02009KT 17/12 A30 RMK A01 T01700119  RH  072%=      5-min Rain = 0
KCL1 240707Z 03011KT 17/12 A30 RMK A01 T01700119  RH  072%=      5-min Rain = 0
KCL1 240708Z 03010KT 17/12 A30 RMK A01 T01710119  RH  072%=      5-min Rain = 0
KCL1 240709Z 03009KT 17/12 A30 RMK A01 T01700119  RH  072%=      5-min Rain = 0
KCL1 240710Z 03009G14KT 17/12 A30 RMK A01 T01710119  RH  072%=      5-min Rain = 0
KCL1 240711Z 03012KT 17/12 A30 RMK A01 T01710119  RH  072%=      5-min Rain = 0
KCL1 240712Z 03011KT 17/12 A30 RMK A01 T01710119  RH  072%=      5-min Rain = 0
KCL1 240713Z 03012KT 17/12 A30 RMK A01 T01700119  RH  072%=      5-min Rain = 0
KCL1 240714Z 04011KT 17/12 A2999 RMK A01 T01710119  RH  072%=      5-min Rain = 0
KCL1 240715Z 03012KT 17/12 A30 RMK A01 T01700118  RH  071%=      5-min Rain = 0
KCL1 240716Z 04012KT 17/12 A2999 RMK A01 T01700118  RH  071%=      5-min Rain = 0
KCL1 240717Z 04011KT 17/12 A2999 RMK A01 T01710118  RH  071%=      5-min Rain = 0
KCL1 240718Z 04011KT 17/12 A2999 RMK A01 T01700118  RH  071%=      5-min Rain = 0
KCL1 240719Z 04012KT 17/12 A2999 RMK A01 T01700117  RH  071%=      5-min Rain = 0
KCL1 240720Z 04011KT 17/12 A2999 RMK A01 T01700117  RH  071%=      5-min Rain = 0
KCL1 240721Z 04012KT 17/12 A2999 RMK A01 T01690117  RH  071%=      5-min Rain = 0
KCL1 240722Z 04011KT 17/12 A2999 RMK A01 T01690116  RH  071%=      5-min Rain = 0
KCL1 240723Z 04010KT 17/12 A2999 RMK A01 T01680116  RH  071%=      5-min Rain = 0
KCL1 240724Z 04011KT 17/12 A2999 RMK A01 T01680115  RH  071%=      5-min Rain = 0
KCL1 240725Z 04010KT 17/12 A2999 RMK A01 T01680115  RH  071%=      5-min Rain = 0
KCL1 240726Z 04010KT 17/12 A2999 RMK A01 T01670115  RH  072%=      5-min Rain = 0
KCL1 240727Z 04011KT 17/12 A2999 RMK A01 T01660115  RH  071%=      5-min Rain = 0
KCL1 240728Z 04010KT 17/11 A2999 RMK A01 T01660114  RH  071%=      5-min Rain = 0
KCL1 240729Z 04010KT 17/11 A2999 RMK A01 T01660114  RH  072%=      5-min Rain = 0
KCL1 240730Z 04011KT 17/11 A2999 RMK A01 T01650114  RH  072%=      5-min Rain = 0
KCL1 240731Z 04011KT 17/11 A2999 RMK A01 T01650114  RH  072%=      5-min Rain = 0
KCL1 240732Z 04011KT 17/11 A2999 RMK A01 T01650113  RH  071%=      5-min Rain = 0
KCL1 240733Z 03009KT 16/11 A2999 RMK A01 T01640112  RH  071%=      5-min Rain = 0
KCL1 240734Z 03011KT 17/11 A2999 RMK A01 T01650112  RH  071%=      5-min Rain = 0
KCL1 240735Z 03010KT 16/11 A2999 RMK A01 T01640111  RH  071%=      5-min Rain = 0
KCL1 240736Z 03010KT 16/11 A2999 RMK A01 T01640111  RH  070%=      5-min Rain = 0
KCL1 240737Z 03010KT 17/11 A2999 RMK A01 T01650111  RH  070%=      5-min Rain = 0
KCL1 240738Z 03010KT 16/11 A2999 RMK A01 T01640111  RH  070%=      5-min Rain = 0
KCL1 240739Z 03009KT 17/11 A2999 RMK A01 T01650111  RH  071%=      5-min Rain = 0
KCL1 240740Z 03010KT 16/11 A30 RMK A01 T01640110  RH  071%=      5-min Rain = 0
KCL1 240741Z 02011KT 16/11 A30 RMK A01 T01640111  RH  071%=      5-min Rain = 0
KCL1 240742Z 03010KT 16/11 A30 RMK A01 T01640111  RH  071%=      5-min Rain = 0
KCL1 240743Z 03011KT 16/11 A30 RMK A01 T01630110  RH  071%=      5-min Rain = 0
KCL1 240744Z 03010KT 16/11 A30 RMK A01 T01640110  RH  071%=      5-min Rain = 0
KCL1 240745Z 03011KT 16/11 A30 RMK A01 T01630110  RH  070%=      5-min Rain = 0
KCL1 240746Z 03011KT 16/11 A30 RMK A01 T01630110  RH  070%=      5-min Rain = 0
KCL1 240747Z 03012KT 16/11 A30 RMK A01 T01630109  RH  070%=      5-min Rain = 0
KCL1 240748Z 03010KT 16/11 A30 RMK A01 T01630109  RH  070%=      5-min Rain = 0
KCL1 240749Z 03010KT 16/11 A30 RMK A01 T01640109  RH  070%=      5-min Rain = 0
KCL1 240750Z 03009KT 16/11 A30 RMK A01 T01630109  RH  070%=      5-min Rain = 0
KCL1 240751Z 03010KT 16/11 A30 RMK A01 T01640109  RH  070%=      5-min Rain = 0
KCL1 240752Z 03010KT 16/11 A30 RMK A01 T01640108  RH  070%=      5-min Rain = 0
KCL1 240753Z 03009KT 16/11 A30 RMK A01 T01630107  RH  069%=      5-min Rain = 0
KCL1 240754Z 03010KT 16/11 A30 RMK A01 T01640107  RH  069%=      5-min Rain = 0
KCL1 240755Z 03010KT 16/11 A30 RMK A01 T01640106  RH  069%=      5-min Rain = 0
KCL1 240756Z 03010KT 17/11 A30 RMK A01 T01650106  RH  068%=      5-min Rain = 0
KCL1 240757Z 03010KT 17/11 A30 RMK A01 T01650105  RH  068%=      5-min Rain = 0
KCL1 240758Z 03010KT 17/11 A30 RMK A01 T01660106  RH  068%=      5-min Rain = 0
KCL1 240759Z 02012KT 17/11 A30 RMK A01 T01660105  RH  067%=      5-min Rain = 0
KCL1 240800Z 02012KT 17/10 A30 RMK A01 T01660104  RH  067%=      5-min Rain = 0
KCL1 240801Z 02010KT 17/10 A30 RMK A01 T01660104  RH  067%=      5-min Rain = 0
KCL1 240802Z 03011KT 17/10 A30 RMK A01 T01660104  RH  067%=      5-min Rain = 0
KCL1 240803Z 02010KT 17/10 A30 RMK A01 T01660104  RH  067%=      5-min Rain = 0
KCL1 240804Z 03011KT 17/10 A30 RMK A01 T01660104  RH  067%=      5-min Rain = 0
KCL1 240805Z 03012KT 17/10 A30 RMK A01 T01660103  RH  066%=      5-min Rain = 0
KCL1 240806Z 03010KT 17/10 A30 RMK A01 T01660103  RH  066%=      5-min Rain = 0
KCL1 240807Z 03010KT 17/10 A30 RMK A01 T01660103  RH  066%=      5-min Rain = 0
KCL1 240808Z 02010KT 17/10 A30 RMK A01 T01650103  RH  067%=      5-min Rain = 0
KCL1 240809Z 03010KT 17/10 A30 RMK A01 T01650103  RH  067%=      5-min Rain = 0
KCL1 240810Z 03010KT 17/10 A30 RMK A01 T01650103  RH  067%=      5-min Rain = 0
KCL1 240811Z 03010KT 17/10 A30 RMK A01 T01650103  RH  067%=      5-min Rain = 0
KCL1 240812Z 02009KT 17/10 A30 RMK A01 T01650103  RH  067%=      5-min Rain = 0
KCL1 240813Z 02009KT 17/10 A30 RMK A01 T01650103  RH  067%=      5-min Rain = 0
KCL1 240814Z 02012KT 17/10 A30 RMK A01 T01650103  RH  067%=      5-min Rain = 0
KCL1 240815Z 03010KT 17/10 A30 RMK A01 T01650103  RH  066%=      5-min Rain = 0
KCL1 240816Z 03010KT 17/10 A30 RMK A01 T01660103  RH  066%=      5-min Rain = 0
KCL1 240817Z 02010KT 17/10 A30 RMK A01 T01660103  RH  066%=      5-min Rain = 0
KCL1 240818Z 02008KT 17/10 A30 RMK A01 T01660103  RH  066%=      5-min Rain = 0
KCL1 240819Z 02009KT 17/10 A30 RMK A01 T01660103  RH  066%=      5-min Rain = 0
KCL1 240820Z 02008KT 17/10 A30 RMK A01 T01660103  RH  066%=      5-min Rain = 0
KCL1 240821Z 02010KT 17/10 A30 RMK A01 T01670104  RH  066%=      5-min Rain = 0
KCL1 240822Z 02009KT 17/10 A30 RMK A01 T01670104  RH  066%=      5-min Rain = 0
KCL1 240823Z 02008KT 17/10 A30 RMK A01 T01670103  RH  066%=      5-min Rain = 0
KCL1 240824Z 02008KT 17/10 A30 RMK A01 T01670103  RH  066%=      5-min Rain = 0
KCL1 240825Z 02009KT 17/10 A30 RMK A01 T01680103  RH  066%=      5-min Rain = 0
KCL1 240826Z 02009KT 17/10 A30 RMK A01 T01680103  RH  065%=      5-min Rain = 0
KCL1 240827Z 02010KT 17/10 A30 RMK A01 T01680102  RH  065%=      5-min Rain = 0
KCL1 240828Z 02008KT 17/10 A30 RMK A01 T01680102  RH  065%=      5-min Rain = 0
KCL1 240829Z 02009G14KT 17/10 A30 RMK A01 T01690103  RH  065%=      5-min Rain = 0
KCL1 240830Z 02010KT 17/10 A30 RMK A01 T01690102  RH  065%=      5-min Rain = 0
KCL1 240831Z 02008KT 17/10 A30 RMK A01 T01690102  RH  065%=      5-min Rain = 0
KCL1 240832Z 02010KT 17/10 A30 RMK A01 T01700102  RH  064%=      5-min Rain = 0
KCL1 240833Z 03009KT 17/10 A30 RMK A01 T01700101  RH  064%=      5-min Rain = 0
KCL1 240834Z 02010KT 17/10 A30 RMK A01 T01710101  RH  063%=      5-min Rain = 0
KCL1 240835Z 03011KT 17/10 A30 RMK A01 T01710100  RH  063%=      5-min Rain = 0
KCL1 240836Z 03010KT 17/10 A30 RMK A01 T01710100  RH  063%=      5-min Rain = 0
KCL1 240837Z 03011KT 17/10 A30 RMK A01 T01720100  RH  062%=      5-min Rain = 0
KCL1 240838Z 03010KT 17/10 A30 RMK A01 T01720099  RH  062%=      5-min Rain = 0
KCL1 240839Z 03012KT 17/10 A30 RMK A01 T01720098  RH  061%=      5-min Rain = 0
KCL1 240840Z 03010KT 17/10 A30 RMK A01 T01730097  RH  061%=      5-min Rain = 0
KCL1 240841Z 03010KT 17/10 A30 RMK A01 T01730097  RH  061%=      5-min Rain = 0
KCL1 240842Z 04009KT 17/10 A30 RMK A01 T01730097  RH  061%=      5-min Rain = 0
KCL1 240843Z 04010KT 17/10 A30 RMK A01 T01730097  RH  061%=      5-min Rain = 0
KCL1 240844Z 04010KT 17/10 A30 RMK A01 T01730096  RH  061%=      5-min Rain = 0
KCL1 240845Z 04010KT 17/10 A30 RMK A01 T01730096  RH  061%=      5-min Rain = 0
KCL1 240846Z 04010KT 17/10 A30 RMK A01 T01730095  RH  060%=      5-min Rain = 0
KCL1 240847Z 04010KT 17/09 A30 RMK A01 T01730094  RH  060%=      5-min Rain = 0
KCL1 240848Z 04009KT 17/09 A30 RMK A01 T01720094  RH  060%=      5-min Rain = 0
KCL1 240849Z 04008KT 17/09 A30 RMK A01 T01720093  RH  060%=      5-min Rain = 0
KCL1 240850Z 04008KT 17/09 A30 RMK A01 T01710093  RH  060%=      5-min Rain = 0
KCL1 240851Z 04009KT 17/09 A30 RMK A01 T01710092  RH  060%=      5-min Rain = 0
KCL1 240852Z 04009KT 17/09 A30 RMK A01 T01700092  RH  060%=      5-min Rain = 0
KCL1 240853Z 04010KT 17/09 A30 RMK A01 T01700091  RH  059%=      5-min Rain = 0
KCL1 240854Z 04009KT 17/09 A30 RMK A01 T01700090  RH  059%=      5-min Rain = 0
KCL1 240855Z 04008KT 17/09 A30 RMK A01 T01700090  RH  059%=      5-min Rain = 0
KCL1 240856Z 04010KT 17/09 A30 RMK A01 T01690090  RH  059%=      5-min Rain = 0
KCL1 240857Z 04010KT 17/09 A30 RMK A01 T01690089  RH  059%=      5-min Rain = 0
KCL1 240858Z 04010KT 17/09 A30 RMK A01 T01700089  RH  059%=      5-min Rain = 0
KCL1 240859Z 04009KT 17/09 A30 RMK A01 T01700090  RH  059%=      5-min Rain = 0
KCL1 240900Z 04010KT 17/09 A30 RMK A01 T01700090  RH  059%=      5-min Rain = 0
KCL1 240901Z 04010KT 17/09 A30 RMK A01 T01700090  RH  059%=      5-min Rain = 0
KCL1 240902Z 04010KT 17/09 A30 RMK A01 T01690089  RH  059%=      5-min Rain = 0
KCL1 240903Z 04010KT 17/09 A30 RMK A01 T01690089  RH  059%=      5-min Rain = 0
KCL1 240904Z 04009KT 17/09 A30 RMK A01 T01690089  RH  059%=      5-min Rain = 0
KCL1 240905Z 04010KT 17/09 A30 RMK A01 T01680089  RH  060%=      5-min Rain = 0
KCL1 240906Z 03008KT 17/09 A30 RMK A01 T01680089  RH  060%=      5-min Rain = 0
KCL1 240907Z 04009KT 17/09 A30 RMK A01 T01680089  RH  060%=      5-min Rain = 0
KCL1 240908Z 04009KT 17/09 A30 RMK A01 T01670090  RH  060%=      5-min Rain = 0
KCL1 240909Z 03009KT 17/09 A30 RMK A01 T01670090  RH  060%=      5-min Rain = 0
KCL1 240910Z 03009KT 17/09 A30 RMK A01 T01660090  RH  061%=      5-min Rain = 0
KCL1 240911Z 03008KT 17/09 A30 RMK A01 T01660090  RH  061%=      5-min Rain = 0
KCL1 240912Z 03008KT 17/09 A30 RMK A01 T01650090  RH  061%=      5-min Rain = 0
KCL1 240913Z 03008KT 17/09 A30 RMK A01 T01650091  RH  062%=      5-min Rain = 0
KCL1 240914Z 03009KT 16/09 A30 RMK A01 T01640091  RH  062%=      5-min Rain = 0
KCL1 240915Z 03009KT 16/09 A30 RMK A01 T01630091  RH  062%=      5-min Rain = 0
KCL1 240916Z 03008KT 16/09 A30 RMK A01 T01630091  RH  062%=      5-min Rain = 0
KCL1 240917Z 03008KT 16/09 A30 RMK A01 T01620091  RH  063%=      5-min Rain = 0
KCL1 240918Z 03008KT 16/09 A30 RMK A01 T01610091  RH  063%=      5-min Rain = 0
KCL1 240919Z 03008KT 16/09 A30 RMK A01 T01610091  RH  063%=      5-min Rain = 0
KCL1 240920Z 04008KT 16/09 A30 RMK A01 T01610091  RH  063%=      5-min Rain = 0
KCL1 240921Z 03008KT 16/09 A30 RMK A01 T01600091  RH  064%=      5-min Rain = 0
KCL1 240922Z 04008KT 16/09 A30 RMK A01 T01590091  RH  064%=      5-min Rain = 0
KCL1 240923Z 04008KT 16/09 A30 RMK A01 T01590091  RH  064%=      5-min Rain = 0
KCL1 240924Z 03008KT 16/09 A30 RMK A01 T01580091  RH  064%=      5-min Rain = 0
KCL1 240925Z 03007KT 16/09 A30 RMK A01 T01580092  RH  065%=      5-min Rain = 0
KCL1 240926Z 04009KT 16/09 A30 RMK A01 T01580092  RH  065%=      5-min Rain = 0
KCL1 240927Z 04008KT 16/09 A30 RMK A01 T01570091  RH  065%=      5-min Rain = 0
KCL1 240928Z 03008KT 16/09 A30 RMK A01 T01570092  RH  065%=      5-min Rain = 0
KCL1 240929Z 03008KT 16/09 A30 RMK A01 T01570091  RH  065%=      5-min Rain = 0
KCL1 240930Z 04008KT 16/09 A30 RMK A01 T01570092  RH  065%=      5-min Rain = 0
KCL1 240931Z 04008KT 16/09 A30 RMK A01 T01570092  RH  065%=      5-min Rain = 0
KCL1 240932Z 03007KT 16/09 A30 RMK A01 T01570092  RH  065%=      5-min Rain = 0
KCL1 240933Z 03008KT 16/09 A30 RMK A01 T01570092  RH  065%=      5-min Rain = 0
KCL1 240934Z 04007KT 16/09 A30 RMK A01 T01570092  RH  065%=      5-min Rain = 0
KCL1 240935Z 04007KT 16/09 A3001 RMK A01 T01570092  RH  065%=      5-min Rain = 0
KCL1 240936Z 04007KT 16/09 A3001 RMK A01 T01570092  RH  065%=      5-min Rain = 0
KCL1 240937Z 04007KT 16/09 A3001 RMK A01 T01560092  RH  065%=      5-min Rain = 0
KCL1 240938Z 03007KT 16/09 A3001 RMK A01 T01560092  RH  066%=      5-min Rain = 0
KCL1 240939Z 04008KT 16/09 A3001 RMK A01 T01560092  RH  066%=      5-min Rain = 0
KCL1 240940Z 03007KT 16/09 A3001 RMK A01 T01560092  RH  066%=      5-min Rain = 0
KCL1 240941Z 03007KT 16/09 A3001 RMK A01 T01560092  RH  066%=      5-min Rain = 0
KCL1 240942Z 03008KT 16/09 A3001 RMK A01 T01560092  RH  066%=      5-min Rain = 0
KCL1 240943Z 03008KT 16/09 A3001 RMK A01 T01550092  RH  066%=      5-min Rain = 0
KCL1 240944Z 03007KT 16/09 A3001 RMK A01 T01550093  RH  066%=      5-min Rain = 0
KCL1 240945Z 03007KT 16/09 A3001 RMK A01 T01550093  RH  066%=      5-min Rain = 0
KCL1 240946Z 03008KT 16/09 A3001 RMK A01 T01550093  RH  066%=      5-min Rain = 0
KCL1 240947Z 03008KT 16/09 A3001 RMK A01 T01550093  RH  067%=      5-min Rain = 0
KCL1 240948Z 03008KT 15/09 A3001 RMK A01 T01540093  RH  067%=      5-min Rain = 0
KCL1 240949Z 03008KT 15/09 A3001 RMK A01 T01540093  RH  067%=      5-min Rain = 0
KCL1 240950Z 03008KT 15/09 A3001 RMK A01 T01540093  RH  067%=      5-min Rain = 0
KCL1 240951Z 03008KT 15/09 A3001 RMK A01 T01530093  RH  067%=      5-min Rain = 0
KCL1 240952Z 02008KT 15/09 A3001 RMK A01 T01530093  RH  067%=      5-min Rain = 0
KCL1 240953Z 02008KT 15/09 A3001 RMK A01 T01530093  RH  068%=      5-min Rain = 0
KCL1 240954Z 02009KT 15/09 A3001 RMK A01 T01520093  RH  068%=      5-min Rain = 0
KCL1 240955Z 03008KT 15/09 A3001 RMK A01 T01520093  RH  068%=      5-min Rain = 0
KCL1 240956Z 02008KT 15/09 A3001 RMK A01 T01520092  RH  068%=      5-min Rain = 0
KCL1 240957Z 02008KT 15/09 A3001 RMK A01 T01520092  RH  067%=      5-min Rain = 0
KCL1 240958Z 02008KT 15/09 A3001 RMK A01 T01520092  RH  067%=      5-min Rain = 0
KCL1 240959Z 02008KT 15/09 A3001 RMK A01 T01530093  RH  067%=      5-min Rain = 0
KCL1 241000Z 02009KT 15/09 A3001 RMK A01 T01520092  RH  067%=      5-min Rain = 0
KCL1 241001Z 02009KT 15/09 A3001 RMK A01 T01520092  RH  067%=      5-min Rain = 0
KCL1 241002Z 02008KT 15/09 A3001 RMK A01 T01520092  RH  067%=      5-min Rain = 0
KCL1 241003Z 03008KT 15/09 A3001 RMK A01 T01520092  RH  067%=      5-min Rain = 0
KCL1 241004Z 03008KT 15/09 A3001 RMK A01 T01520092  RH  067%=      5-min Rain = 0
KCL1 241005Z 03008KT 15/09 A3001 RMK A01 T01520093  RH  068%=      5-min Rain = 0
KCL1 241006Z 03008KT 15/09 A3001 RMK A01 T01510092  RH  068%=      5-min Rain = 0
KCL1 241007Z 03009KT 15/09 A3001 RMK A01 T01510093  RH  068%=      5-min Rain = 0
KCL1 241008Z 03008KT 15/09 A3001 RMK A01 T01510092  RH  068%=      5-min Rain = 0
KCL1 241009Z 03009KT 15/09 A3001 RMK A01 T01500092  RH  068%=      5-min Rain = 0
KCL1 241010Z 03009KT 15/09 A3001 RMK A01 T01500092  RH  068%=      5-min Rain = 0
KCL1 241011Z 03008KT 15/09 A3001 RMK A01 T01500093  RH  068%=      5-min Rain = 0
KCL1 241012Z 03008KT 15/09 A3001 RMK A01 T01500092  RH  068%=      5-min Rain = 0
KCL1 241013Z 03008KT 15/09 A3001 RMK A01 T01490093  RH  069%=      5-min Rain = 0
KCL1 241014Z 03008KT 15/09 A3001 RMK A01 T01480092  RH  069%=      5-min Rain = 0
KCL1 241015Z 02008KT 15/09 A3001 RMK A01 T01480093  RH  069%=      5-min Rain = 0
KCL1 241016Z 02008KT 15/09 A3001 RMK A01 T01470093  RH  070%=      5-min Rain = 0
KCL1 241017Z 02007KT 15/09 A3001 RMK A01 T01470093  RH  070%=      5-min Rain = 0
KCL1 241018Z 02007KT 15/09 A3001 RMK A01 T01470093  RH  070%=      5-min Rain = 0
KCL1 241019Z 02007KT 15/09 A3001 RMK A01 T01460093  RH  070%=      5-min Rain = 0
KCL1 241020Z 02007KT 15/09 A3001 RMK A01 T01460093  RH  070%=      5-min Rain = 0
KCL1 241021Z 02007KT 15/09 A3001 RMK A01 T01460093  RH  071%=      5-min Rain = 0
KCL1 241022Z 02008KT 15/09 A3001 RMK A01 T01450093  RH  071%=      5-min Rain = 0
KCL1 241023Z 02008KT 15/09 A3001 RMK A01 T01450092  RH  071%=      5-min Rain = 0
KCL1 241024Z 02008KT 15/09 A3001 RMK A01 T01450093  RH  071%=      5-min Rain = 0
KCL1 241025Z 02008KT 15/09 A3001 RMK A01 T01450093  RH  071%=      5-min Rain = 0
KCL1 241026Z 02008KT 15/09 A3001 RMK A01 T01450093  RH  071%=      5-min Rain = 0
KCL1 241027Z 02008KT 15/09 A3002 RMK A01 T01450093  RH  071%=      5-min Rain = 0
KCL1 241028Z 02007KT 15/09 A3002 RMK A01 T01450092  RH  071%=      5-min Rain = 0
KCL1 241029Z 02008KT 15/09 A3002 RMK A01 T01450092  RH  070%=      5-min Rain = 0
KCL1 241030Z 02007KT 15/09 A3002 RMK A01 T01460092  RH  070%=      5-min Rain = 0
KCL1 241031Z 02008KT 15/09 A3002 RMK A01 T01460092  RH  070%=      5-min Rain = 0
KCL1 241032Z 02008KT 15/09 A3002 RMK A01 T01460092  RH  070%=      5-min Rain = 0
KCL1 241033Z 02008KT 15/09 A3002 RMK A01 T01450092  RH  070%=      5-min Rain = 0
KCL1 241034Z 02008KT 15/09 A3002 RMK A01 T01460092  RH  070%=      5-min Rain = 0
KCL1 241035Z 02008KT 15/09 A3002 RMK A01 T01460092  RH  070%=      5-min Rain = 0
KCL1 241036Z 02008KT 15/09 A3002 RMK A01 T01460092  RH  070%=      5-min Rain = 0
KCL1 241037Z 02008KT 15/09 A3002 RMK A01 T01460092  RH  070%=      5-min Rain = 0
KCL1 241038Z 02008KT 15/09 A3002 RMK A01 T01460092  RH  070%=      5-min Rain = 0
KCL1 241039Z 02008KT 15/09 A3002 RMK A01 T01460092  RH  070%=      5-min Rain = 0
KCL1 241040Z 02008KT 15/09 A3002 RMK A01 T01450092  RH  070%=      5-min Rain = 0
KCL1 241041Z 02008KT 15/09 A3002 RMK A01 T01450091  RH  070%=      5-min Rain = 0
KCL1 241042Z 02008KT 15/09 A3002 RMK A01 T01450091  RH  070%=      5-min Rain = 0
KCL1 241043Z 02008KT 15/09 A3002 RMK A01 T01460091  RH  070%=      5-min Rain = 0
KCL1 241044Z 02008KT 15/09 A3002 RMK A01 T01460091  RH  070%=      5-min Rain = 0
KCL1 241045Z 02008KT 15/09 A3002 RMK A01 T01460091  RH  070%=      5-min Rain = 0
KCL1 241046Z 02008KT 15/09 A3002 RMK A01 T01460091  RH  070%=      5-min Rain = 0
KCL1 241047Z 02008KT 15/09 A3002 RMK A01 T01460091  RH  070%=      5-min Rain = 0
KCL1 241048Z 02008KT 15/09 A3002 RMK A01 T01460091  RH  070%=      5-min Rain = 0
KCL1 241049Z 02008KT 15/09 A3002 RMK A01 T01460091  RH  070%=      5-min Rain = 0
KCL1 241050Z 02008KT 15/09 A3002 RMK A01 T01460091  RH  070%=      5-min Rain = 0
KCL1 241051Z 02008KT 15/09 A3002 RMK A01 T01460091  RH  070%=      5-min Rain = 0
KCL1 241052Z 02008KT 15/09 A3002 RMK A01 T01450091  RH  070%=      5-min Rain = 0
KCL1 241053Z 02008KT 15/09 A3002 RMK A01 T01450091  RH  070%=      5-min Rain = 0
KCL1 241054Z 02008KT 15/09 A3002 RMK A01 T01450091  RH  070%=      5-min Rain = 0
KCL1 241055Z 02009KT 15/09 A3002 RMK A01 T01450091  RH  070%=      5-min Rain = 0
KCL1 241056Z 02008KT 15/09 A3002 RMK A01 T01450090  RH  070%=      5-min Rain = 0
KCL1 241057Z 02008KT 15/09 A3002 RMK A01 T01450090  RH  069%=      5-min Rain = 0
KCL1 241058Z 02008KT 15/09 A3002 RMK A01 T01460090  RH  069%=      5-min Rain = 0
KCL1 241059Z 02008KT 15/09 A3002 RMK A01 T01460090  RH  069%=      5-min Rain = 0
KCL1 241100Z 02008KT 15/09 A3002 RMK A01 T01470091  RH  069%=      5-min Rain = 0
KCL1 241101Z 02008KT 15/09 A3002 RMK A01 T01470090  RH  069%=      5-min Rain = 0
KCL1 241102Z 02008KT 15/09 A3003 RMK A01 T01470090  RH  069%=      5-min Rain = 0
KCL1 241103Z 01008KT 15/09 A3003 RMK A01 T01470090  RH  069%=      5-min Rain = 0
KCL1 241104Z 02008KT 15/09 A3003 RMK A01 T01460090  RH  069%=      5-min Rain = 0
KCL1 241105Z 01008KT 15/09 A3003 RMK A01 T01470090  RH  069%=      5-min Rain = 0
KCL1 241106Z 01008KT 15/09 A3003 RMK A01 T01470090  RH  069%=      5-min Rain = 0
KCL1 241107Z 01008KT 15/09 A3003 RMK A01 T01460090  RH  069%=      5-min Rain = 0
KCL1 241108Z 01007KT 15/09 A3003 RMK A01 T01470090  RH  069%=      5-min Rain = 0
KCL1 241109Z 02008KT 15/09 A3003 RMK A01 T01470091  RH  069%=      5-min Rain = 0
KCL1 241110Z 02008KT 15/09 A3003 RMK A01 T01460091  RH  069%=      5-min Rain = 0
KCL1 241111Z 02008KT 15/09 A3003 RMK A01 T01460090  RH  069%=      5-min Rain = 0
KCL1 241112Z 02008KT 15/09 A3003 RMK A01 T01470090  RH  069%=      5-min Rain = 0
KCL1 241113Z 02007KT 15/09 A3003 RMK A01 T01470090  RH  068%=      5-min Rain = 0
KCL1 241114Z 02007KT 15/09 A3003 RMK A01 T01480090  RH  068%=      5-min Rain = 0
KCL1 241115Z 02007KT 15/09 A3003 RMK A01 T01490090  RH  068%=      5-min Rain = 0
KCL1 241116Z 01006KT 15/09 A3003 RMK A01 T01490090  RH  067%=      5-min Rain = 0
KCL1 241117Z 01006KT 15/09 A3003 RMK A01 T01500090  RH  067%=      5-min Rain = 0
KCL1 241118Z 01006KT 15/09 A3003 RMK A01 T01500091  RH  068%=      5-min Rain = 0
KCL1 241119Z 01006KT 15/09 A3003 RMK A01 T01500092  RH  068%=      5-min Rain = 0
KCL1 241120Z 01006KT 15/09 A3003 RMK A01 T01490093  RH  069%=      5-min Rain = 0
KCL1 241121Z 01006KT 15/09 A3003 RMK A01 T01490093  RH  069%=      5-min Rain = 0
KCL1 241122Z 01006KT 15/09 A3003 RMK A01 T01490093  RH  069%=      5-min Rain = 0
KCL1 241123Z 01006KT 15/09 A3003 RMK A01 T01490093  RH  069%=      5-min Rain = 0
KCL1 241124Z 00006KT 15/09 A3003 RMK A01 T01500092  RH  069%=      5-min Rain = 0
KCL1 241125Z 01006KT 15/09 A3003 RMK A01 T01500092  RH  068%=      5-min Rain = 0
KCL1 241126Z 00006KT 15/09 A3003 RMK A01 T01510092  RH  068%=      5-min Rain = 0
KCL1 241127Z 01006KT 15/09 A3003 RMK A01 T01510092  RH  068%=      5-min Rain = 0
KCL1 241128Z 01006KT 15/09 A3003 RMK A01 T01520093  RH  068%=      5-min Rain = 0
KCL1 241129Z 01006KT 15/09 A3003 RMK A01 T01520093  RH  068%=      5-min Rain = 0
KCL1 241130Z 01006KT 15/09 A3003 RMK A01 T01520093  RH  068%=      5-min Rain = 0
KCL1 241131Z 01006KT 15/09 A3004 RMK A01 T01520093  RH  068%=      5-min Rain = 0
KCL1 241132Z 01006KT 15/09 A3004 RMK A01 T01520093  RH  068%=      5-min Rain = 0
KCL1 241133Z 01006KT 15/09 A3004 RMK A01 T01520093  RH  068%=      5-min Rain = 0
KCL1 241134Z 01006KT 15/09 A3004 RMK A01 T01520094  RH  068%=      5-min Rain = 0
KCL1 241135Z 01006KT 15/09 A3004 RMK A01 T01520094  RH  068%=      5-min Rain = 0
KCL1 241136Z 01006KT 15/10 A3004 RMK A01 T01530095  RH  068%=      5-min Rain = 0
KCL1 241137Z 01006KT 15/10 A3004 RMK A01 T01530095  RH  068%=      5-min Rain = 0
KCL1 241138Z 01006KT 15/09 A3004 RMK A01 T01530094  RH  068%=      5-min Rain = 0
KCL1 241139Z 00006KT 15/10 A3004 RMK A01 T01540095  RH  068%=      5-min Rain = 0
KCL1 241140Z 00006KT 15/10 A3004 RMK A01 T01540095  RH  068%=      5-min Rain = 0
KCL1 241141Z 01005KT 15/10 A3004 RMK A01 T01540095  RH  068%=      5-min Rain = 0
KCL1 241142Z 01006KT 15/10 A3004 RMK A01 T01540095  RH  068%=      5-min Rain = 0
KCL1 241143Z 00006KT 15/10 A3004 RMK A01 T01540095  RH  068%=      5-min Rain = 0
KCL1 241144Z 00006KT 15/10 A3004 RMK A01 T01540095  RH  068%=      5-min Rain = 0
KCL1 241145Z 00005KT 15/10 A3004 RMK A01 T01540095  RH  068%=      5-min Rain = 0
KCL1 241146Z 00006KT 16/10 A3004 RMK A01 T01550095  RH  068%=      5-min Rain = 0
KCL1 241147Z 01005KT 15/10 A3004 RMK A01 T01540095  RH  068%=      5-min Rain = 0
KCL1 241148Z 01006KT 15/10 A3004 RMK A01 T01540095  RH  068%=      5-min Rain = 0
KCL1 241149Z 01006KT 15/09 A3004 RMK A01 T01540094  RH  067%=      5-min Rain = 0
KCL1 241150Z 01006KT 15/09 A3004 RMK A01 T01540094  RH  067%=      5-min Rain = 0
KCL1 241151Z 01007KT 15/09 A3004 RMK A01 T01540093  RH  067%=      5-min Rain = 0
KCL1 241152Z 01007KT 15/09 A3004 RMK A01 T01540092  RH  067%=      5-min Rain = 0
KCL1 241153Z 01006KT 15/09 A3004 RMK A01 T01540092  RH  067%=      5-min Rain = 0
KCL1 241154Z 01007KT 15/09 A3004 RMK A01 T01540092  RH  067%=      5-min Rain = 0
KCL1 241155Z 00007KT 15/09 A3004 RMK A01 T01540092  RH  067%=      5-min Rain = 0
KCL1 241156Z 00007KT 15/09 A3004 RMK A01 T01540092  RH  067%=      5-min Rain = 0
KCL1 241157Z 00006KT 15/09 A3004 RMK A01 T01540093  RH  067%=      5-min Rain = 0
KCL1 241158Z 00007KT 15/09 A3004 RMK A01 T01540093  RH  067%=      5-min Rain = 0
KCL1 241159Z 00007KT 15/09 A3004 RMK A01 T01540092  RH  067%=      5-min Rain = 0
KCL1 241200Z 36007KT 15/09 A3004 RMK A01 T01530092  RH  067%=      5-min Rain = 0
KCL1 241201Z 36007KT 15/09 A3004 RMK A01 T01530092  RH  067%=      5-min Rain = 0
KCL1 241202Z 00007KT 15/09 A3004 RMK A01 T01520092  RH  067%=      5-min Rain = 0
KCL1 241203Z 00007KT 15/09 A3004 RMK A01 T01520092  RH  067%=      5-min Rain = 0
KCL1 241204Z 00006KT 15/09 A3004 RMK A01 T01520091  RH  067%=      5-min Rain = 0
KCL1 241205Z 00006KT 15/09 A3004 RMK A01 T01520091  RH  067%=      5-min Rain = 0
KCL1 241206Z 00007KT 15/09 A3004 RMK A01 T01520091  RH  067%=      5-min Rain = 0
KCL1 241207Z 00007KT 15/09 A3004 RMK A01 T01520091  RH  067%=      5-min Rain = 0
KCL1 241208Z 01007KT 15/09 A3004 RMK A01 T01520091  RH  067%=      5-min Rain = 0
KCL1 241209Z 01007KT 15/09 A3004 RMK A01 T01520091  RH  067%=      5-min Rain = 0
KCL1 241210Z 01006KT 15/09 A3004 RMK A01 T01520092  RH  067%=      5-min Rain = 0
KCL1 241211Z 00007KT 15/09 A3004 RMK A01 T01520092  RH  067%=      5-min Rain = 0
KCL1 241212Z 01007KT 15/09 A3004 RMK A01 T01520091  RH  067%=      5-min Rain = 0
KCL1 241213Z 01007KT 15/09 A3004 RMK A01 T01520091  RH  067%=      5-min Rain = 0
KCL1 241214Z 01007KT 15/09 A3004 RMK A01 T01520091  RH  067%=      5-min Rain = 0
KCL1 241215Z 01007KT 15/09 A3004 RMK A01 T01530092  RH  067%=      5-min Rain = 0
KCL1 241216Z 01008KT 15/09 A3004 RMK A01 T01520092  RH  067%=      5-min Rain = 0
KCL1 241217Z 00008KT 15/09 A3004 RMK A01 T01520092  RH  067%=      5-min Rain = 0
KCL1 241218Z 01008KT 15/09 A3004 RMK A01 T01520092  RH  067%=      5-min Rain = 0
KCL1 241219Z 01008KT 15/09 A3004 RMK A01 T01520091  RH  067%=      5-min Rain = 0
KCL1 241220Z 01007KT 15/09 A3004 RMK A01 T01530091  RH  066%=      5-min Rain = 0
KCL1 241221Z 01007KT 15/09 A3004 RMK A01 T01540091  RH  066%=      5-min Rain = 0
KCL1 241222Z 01008KT 16/09 A3004 RMK A01 T01550091  RH  066%=      5-min Rain = 0
KCL1 241223Z 01008KT 16/09 A3004 RMK A01 T01550091  RH  065%=      5-min Rain = 0
KCL1 241224Z 01007KT 16/09 A3004 RMK A01 T01560091  RH  065%=      5-min Rain = 0
KCL1 241225Z 01007KT 16/09 A3004 RMK A01 T01560091  RH  065%=      5-min Rain = 0
KCL1 241226Z 01008KT 16/09 A3004 RMK A01 T01570092  RH  065%=      5-min Rain = 0
KCL1 241227Z 01008KT 16/09 A3004 RMK A01 T01570091  RH  065%=      5-min Rain = 0
KCL1 241228Z 01007KT 16/09 A3004 RMK A01 T01570091  RH  065%=      5-min Rain = 0
KCL1 241229Z 00007KT 16/09 A3004 RMK A01 T01580091  RH  065%=      5-min Rain = 0
KCL1 241230Z 01007KT 16/09 A3004 RMK A01 T01580092  RH  064%=      5-min Rain = 0
KCL1 241231Z 01008KT 16/09 A3004 RMK A01 T01580091  RH  064%=      5-min Rain = 0
KCL1 241232Z 01007KT 16/09 A3004 RMK A01 T01590091  RH  064%=      5-min Rain = 0
KCL1 241233Z 01007KT 16/09 A3004 RMK A01 T01600091  RH  063%=      5-min Rain = 0
KCL1 241234Z 01007KT 16/09 A3004 RMK A01 T01600090  RH  063%=      5-min Rain = 0
KCL1 241235Z 01007KT 16/09 A3004 RMK A01 T01610091  RH  063%=      5-min Rain = 0
KCL1 241236Z 01007KT 16/09 A3004 RMK A01 T01620091  RH  063%=      5-min Rain = 0
KCL1 241237Z 01008KT 16/09 A3004 RMK A01 T01620091  RH  063%=      5-min Rain = 0
KCL1 241238Z 01007KT 16/09 A3004 RMK A01 T01630092  RH  063%=      5-min Rain = 0
KCL1 241239Z 01008KT 16/09 A3004 RMK A01 T01640091  RH  062%=      5-min Rain = 0
KCL1 241240Z 01007KT 16/09 A3004 RMK A01 T01640091  RH  062%=      5-min Rain = 0
KCL1 241241Z 01007KT 17/09 A3004 RMK A01 T01650091  RH  062%=      5-min Rain = 0
KCL1 241242Z 01007KT 17/09 A3004 RMK A01 T01660091  RH  061%=      5-min Rain = 0
KCL1 241243Z 02006KT 17/09 A3004 RMK A01 T01660091  RH  061%=      5-min Rain = 0
KCL1 241244Z 01007KT 17/09 A3004 RMK A01 T01660091  RH  061%=      5-min Rain = 0
KCL1 241245Z 02007KT 17/09 A3004 RMK A01 T01660090  RH  061%=      5-min Rain = 0
KCL1 241246Z 01006KT 17/09 A3004 RMK A01 T01660091  RH  061%=      5-min Rain = 0
KCL1 241247Z 01007KT 17/09 A3004 RMK A01 T01660090  RH  061%=      5-min Rain = 0
KCL1 241248Z 01007KT 17/09 A3005 RMK A01 T01660090  RH  061%=      5-min Rain = 0
KCL1 241249Z 01006KT 17/09 A3005 RMK A01 T01650090  RH  061%=      5-min Rain = 0
KCL1 241250Z 01007KT 17/09 A3005 RMK A01 T01650091  RH  061%=      5-min Rain = 0
KCL1 241251Z 01008KT 17/09 A3005 RMK A01 T01650089  RH  061%=      5-min Rain = 0
KCL1 241252Z 01007KT 17/09 A3005 RMK A01 T01670090  RH  060%=      5-min Rain = 0
KCL1 241253Z 01007KT 17/09 A3005 RMK A01 T01680090  RH  060%=      5-min Rain = 0
KCL1 241254Z 01008KT 17/09 A3005 RMK A01 T01690090  RH  060%=      5-min Rain = 0
KCL1 241255Z 02008KT 17/09 A3005 RMK A01 T01700089  RH  059%=      5-min Rain = 0
KCL1 241256Z 01008KT 17/09 A3005 RMK A01 T01710089  RH  058%=      5-min Rain = 0
KCL1 241257Z 02008KT 17/09 A3005 RMK A01 T01710089  RH  059%=      5-min Rain = 0
KCL1 241258Z 02007KT 17/09 A3005 RMK A01 T01720090  RH  058%=      5-min Rain = 0
KCL1 241259Z 02008KT 17/09 A3005 RMK A01 T01730089  RH  058%=      5-min Rain = 0
KCL1 241300Z 01008KT 17/09 A3005 RMK A01 T01730089  RH  058%=      5-min Rain = 0
KCL1 241301Z 01008KT 17/09 A3005 RMK A01 T01740089  RH  058%=      5-min Rain = 0
KCL1 241302Z 00007KT 17/09 A3005 RMK A01 T01740090  RH  058%=      5-min Rain = 0
KCL1 241303Z 01009KT 18/09 A3005 RMK A01 T01750089  RH  057%=      5-min Rain = 0
KCL1 241304Z 01009KT 18/09 A3005 RMK A01 T01750088  RH  057%=      5-min Rain = 0
KCL1 241305Z 01008KT 18/09 A3005 RMK A01 T01750089  RH  057%=      5-min Rain = 0
KCL1 241306Z 00007KT 18/09 A3005 RMK A01 T01750089  RH  057%=      5-min Rain = 0
KCL1 241307Z 01008KT 18/09 A3005 RMK A01 T01760089  RH  057%=      5-min Rain = 0
KCL1 241308Z 00008KT 18/09 A3005 RMK A01 T01760089  RH  057%=      5-min Rain = 0
KCL1 241309Z 01008KT 18/09 A3005 RMK A01 T01770088  RH  056%=      5-min Rain = 0
KCL1 241310Z 01009KT 18/09 A3005 RMK A01 T01770088  RH  056%=      5-min Rain = 0
KCL1 241311Z 01010KT 18/09 A3005 RMK A01 T01770086  RH  055%=      5-min Rain = 0
KCL1 241312Z 01008KT 18/09 A3005 RMK A01 T01770086  RH  055%=      5-min Rain = 0
KCL1 241313Z 01008KT 18/09 A3005 RMK A01 T01780088  RH  055%=      5-min Rain = 0
KCL1 241314Z 01006KT 18/09 A3005 RMK A01 T01790089  RH  056%=      5-min Rain = 0
KCL1 241315Z 01007KT 18/09 A3005 RMK A01 T01800089  RH  055%=      5-min Rain = 0
KCL1 241316Z 01008KT 18/09 A3005 RMK A01 T01810088  RH  055%=      5-min Rain = 0
KCL1 241317Z 02007KT 18/09 A3005 RMK A01 T01820088  RH  054%=      5-min Rain = 0
KCL1 241318Z 02007KT 18/09 A3005 RMK A01 T01820089  RH  054%=      5-min Rain = 0
KCL1 241319Z 01006KT 18/09 A3005 RMK A01 T01830089  RH  054%=      5-min Rain = 0
KCL1 241320Z 01006KT 18/09 A3005 RMK A01 T01840089  RH  054%=      5-min Rain = 0
KCL1 241321Z 01008KT 19/09 A3005 RMK A01 T01850085  RH  052%=      5-min Rain = 0
KCL1 241322Z 01008KT 19/08 A3005 RMK A01 T01860083  RH  051%=      5-min Rain = 0
KCL1 241323Z 01007KT 19/08 A3005 RMK A01 T01860082  RH  051%=      5-min Rain = 0
KCL1 241324Z 00007KT 19/08 A3005 RMK A01 T01860082  RH  051%=      5-min Rain = 0
KCL1 241325Z 01008KT 19/08 A3005 RMK A01 T01860081  RH  050%=      5-min Rain = 0
KCL1 241326Z 01008KT 19/08 A3005 RMK A01 T01860080  RH  050%=      5-min Rain = 0
KCL1 241327Z 02008KT 19/08 A3005 RMK A01 T01860081  RH  051%=      5-min Rain = 0
KCL1 241328Z 02008KT 19/08 A3005 RMK A01 T01860084  RH  051%=      5-min Rain = 0
KCL1 241329Z 02007KT 19/08 A3005 RMK A01 T01860084  RH  051%=      5-min Rain = 0
KCL1 241330Z 02006KT 19/09 A3005 RMK A01 T01870086  RH  052%=      5-min Rain = 0
KCL1 241331Z 02007KT 19/09 A3005 RMK A01 T01870086  RH  052%=      5-min Rain = 0
KCL1 241332Z 01007KT 19/09 A3005 RMK A01 T01880085  RH  051%=      5-min Rain = 0
KCL1 241333Z 03006KT 19/09 A3006 RMK A01 T01890085  RH  051%=      5-min Rain = 0
KCL1 241334Z 03006KT 19/09 A3006 RMK A01 T01890086  RH  051%=      5-min Rain = 0
KCL1 241335Z 02005KT 19/09 A3006 RMK A01 T01900087  RH  051%=      5-min Rain = 0
KCL1 241336Z 02006KT 19/09 A3005 RMK A01 T01920087  RH  051%=      5-min Rain = 0
KCL1 241337Z 02007KT 19/09 A3005 RMK A01 T01920086  RH  050%=      5-min Rain = 0
KCL1 241338Z 02006KT 19/09 A3005 RMK A01 T01920086  RH  050%=      5-min Rain = 0
KCL1 241339Z 01006KT 19/09 A3005 RMK A01 T01920085  RH  050%=      5-min Rain = 0
KCL1 241340Z 01006KT 19/09 A3005 RMK A01 T01920085  RH  050%=      5-min Rain = 0
KCL1 241341Z 01006KT 19/09 A3005 RMK A01 T01920086  RH  050%=      5-min Rain = 0
KCL1 241342Z 01007KT 19/09 A3005 RMK A01 T01920085  RH  050%=      5-min Rain = 0
KCL1 241343Z 02006KT 19/08 A3005 RMK A01 T01930084  RH  049%=      5-min Rain = 0
KCL1 241344Z 02005KT 19/09 A3005 RMK A01 T01940087  RH  050%=      5-min Rain = 0
KCL1 241345Z 02005KT 20/09 A3005 RMK A01 T01950086  RH  049%=      5-min Rain = 0
KCL1 241346Z 01006KT 20/09 A3005 RMK A01 T01960085  RH  049%=      5-min Rain = 0
KCL1 241347Z 01005KT 20/09 A3005 RMK A01 T01960085  RH  048%=      5-min Rain = 0
KCL1 241348Z 02005KT 20/08 A3005 RMK A01 T01980082  RH  047%=      5-min Rain = 0
KCL1 241349Z 03005KT 20/08 A3005 RMK A01 T01990081  RH  046%=      5-min Rain = 0
KCL1 241350Z 03004KT 20/08 A3005 RMK A01 T02000080  RH  046%=      5-min Rain = 0
KCL1 241351Z 02005KT 20/08 A3005 RMK A01 T02010082  RH  046%=      5-min Rain = 0
KCL1 241352Z 03006KT 20/08 A3005 RMK A01 T02020080  RH  045%=      5-min Rain = 0
KCL1 241353Z 02004KT 20/08 A3005 RMK A01 T02030080  RH  045%=      5-min Rain = 0
KCL1 241354Z 02004KT 20/08 A3005 RMK A01 T02040083  RH  046%=      5-min Rain = 0
KCL1 241355Z 02004KT 20/08 A3005 RMK A01 T02040083  RH  046%=      5-min Rain = 0
KCL1 241356Z 04004KT 20/08 A3006 RMK A01 T02040081  RH  045%=      5-min Rain = 0
KCL1 241357Z 04005KT 21/08 A3006 RMK A01 T02050078  RH  044%=      5-min Rain = 0
KCL1 241358Z 02004KT 21/08 A3006 RMK A01 T02050077  RH  044%=      5-min Rain = 0
KCL1 241359Z 02004KT 21/08 A3006 RMK A01 T02050078  RH  044%=      5-min Rain = 0
KCL1 241400Z 04004KT 21/08 A3006 RMK A01 T02050079  RH  044%=      5-min Rain = 0
KCL1 241401Z 02004KT 21/08 A3006 RMK A01 T02050080  RH  044%=      5-min Rain = 0
KCL1 241402Z 03004KT 21/09 A3006 RMK A01 T02060086  RH  046%=      5-min Rain = 0
KCL1 241403Z 03005KT 21/08 A3006 RMK A01 T02080082  RH  044%=      5-min Rain = 0
KCL1 241404Z 03004KT 21/08 A3006 RMK A01 T02080078  RH  043%=      5-min Rain = 0
KCL1 241405Z 02003KT 21/08 A3006 RMK A01 T02080079  RH  043%=      5-min Rain = 0
KCL1 241406Z 01004KT 21/08 A3006 RMK A01 T02080079  RH  043%=      5-min Rain = 0
KCL1 241407Z 02004KT 21/08 A3006 RMK A01 T02080081  RH  044%=      5-min Rain = 0
KCL1 241408Z 02003KT 21/08 A3006 RMK A01 T02100079  RH  043%=      5-min Rain = 0
KCL1 241409Z 03001KT 21/08 A3006 RMK A01 T02100081  RH  043%=      5-min Rain = 0
KCL1 241410Z 03002KT 21/08 A3006 RMK A01 T02110083  RH  044%=      5-min Rain = 0
KCL1 241411Z 36003KT 21/08 A3006 RMK A01 T02130084  RH  044%=      5-min Rain = 0
KCL1 241412Z 01003KT 21/08 A3006 RMK A01 T02140084  RH  043%=      5-min Rain = 0
KCL1 241413Z 02002KT 22/08 A3006 RMK A01 T02160078  RH  041%=      5-min Rain = 0
KCL1 241414Z 02004KT 22/07 A3006 RMK A01 T02170074  RH  040%=      5-min Rain = 0
KCL1 241415Z 02003KT 22/07 A3006 RMK A01 T02170074  RH  040%=      5-min Rain = 0
KCL1 241416Z 04003KT 22/07 A3006 RMK A01 T02160073  RH  040%=      5-min Rain = 0
KCL1 241417Z 04002KT 22/07 A3006 RMK A01 T02160073  RH  040%=      5-min Rain = 0
KCL1 241418Z 04001KT 22/08 A3006 RMK A01 T02160075  RH  040%=      5-min Rain = 0
KCL1 241419Z 09002KT 22/08 A3006 RMK A01 T02170076  RH  040%=      5-min Rain = 0
KCL1 241420Z 11002KT 22/07 A3006 RMK A01 T02190071  RH  038%=      5-min Rain = 0
KCL1 241421Z 10003KT 22/07 A3006 RMK A01 T02200069  RH  038%=      5-min Rain = 0
KCL1 241422Z 10003KT 22/07 A3006 RMK A01 T02200072  RH  038%=      5-min Rain = 0
KCL1 241423Z 11002KT 22/07 A3006 RMK A01 T02200069  RH  038%=      5-min Rain = 0
KCL1 241424Z 12002KT 22/07 A3006 RMK A01 T02210072  RH  038%=      5-min Rain = 0
KCL1 241425Z 09003KT 22/07 A3006 RMK A01 T02220071  RH  038%=      5-min Rain = 0
KCL1 241426Z 09001KT 22/07 A3006 RMK A01 T02220067  RH  037%=      5-min Rain = 0
KCL1 241427Z 10003KT 22/07 A3006 RMK A01 T02210071  RH  038%=      5-min Rain = 0
KCL1 241428Z 10002KT 22/07 A3006 RMK A01 T02220070  RH  037%=      5-min Rain = 0
KCL1 241429Z 10002KT 22/07 A3006 RMK A01 T02230072  RH  038%=      5-min Rain = 0
KCL1 241430Z 08001KT 22/07 A3006 RMK A01 T02240070  RH  037%=      5-min Rain = 0
KCL1 241431Z 10001KT 22/07 A3006 RMK A01 T02240072  RH  038%=      5-min Rain = 0
KCL1 241432Z 15003KT 23/08 A3006 RMK A01 T02250076  RH  038%=      5-min Rain = 0
KCL1 241433Z 14004KT 23/08 A3006 RMK A01 T02260077  RH  038%=      5-min Rain = 0
KCL1 241434Z 13002KT 23/07 A3006 RMK A01 T02270074  RH  037%=      5-min Rain = 0
KCL1 241435Z 14001KT 23/07 A3006 RMK A01 T02270074  RH  037%=      5-min Rain = 0
KCL1 241436Z 17001KT 23/08 A3006 RMK A01 T02270077  RH  038%=      5-min Rain = 0
KCL1 241437Z 17002KT 23/08 A3006 RMK A01 T02280080  RH  039%=      5-min Rain = 0
KCL1 241438Z 15004KT 23/09 A3006 RMK A01 T02280086  RH  040%=      5-min Rain = 0
KCL1 241439Z 17003KT 23/09 A3006 RMK A01 T02280091  RH  042%=      5-min Rain = 0
KCL1 241440Z 16002KT 23/09 A3006 RMK A01 T02280088  RH  041%=      5-min Rain = 0
KCL1 241441Z 13002KT 23/09 A3006 RMK A01 T02260089  RH  042%=      5-min Rain = 0
KCL1 241442Z 13003KT 23/08 A3006 RMK A01 T02270084  RH  040%=      5-min Rain = 0
KCL1 241443Z 15004KT 23/08 A3006 RMK A01 T02270083  RH  040%=      5-min Rain = 0
KCL1 241444Z 14004KT 23/09 A3006 RMK A01 T02270087  RH  041%=      5-min Rain = 0
KCL1 241445Z 13004KT 23/08 A3006 RMK A01 T02270076  RH  038%=      5-min Rain = 0
KCL1 241446Z 12004KT 23/08 A3006 RMK A01 T02270075  RH  038%=      5-min Rain = 0
KCL1 241447Z 08004KT 23/08 A3006 RMK A01 T02270077  RH  038%=      5-min Rain = 0
KCL1 241448Z 08003KT 23/07 A3006 RMK A01 T02270073  RH  037%=      5-min Rain = 0
KCL1 241449Z 10002KT 23/07 A3006 RMK A01 T02260074  RH  038%=      5-min Rain = 0
KCL1 241450Z 11003KT 23/08 A3006 RMK A01 T02270077  RH  038%=      5-min Rain = 0
KCL1 241451Z 11003KT 23/07 A3006 RMK A01 T02280073  RH  037%=      5-min Rain = 0
KCL1 241452Z 11003KT 23/07 A3006 RMK A01 T02290074  RH  037%=      5-min Rain = 0
KCL1 241453Z 11001KT 23/07 A3006 RMK A01 T02290073  RH  037%=      5-min Rain = 0
KCL1 241454Z 07000KT 23/08 A3006 RMK A01 T02300075  RH  037%=      5-min Rain = 0
KCL1 241455Z 11001KT 23/08 A3006 RMK A01 T02300076  RH  037%=      5-min Rain = 0
KCL1 241456Z 11001KT 23/08 A3006 RMK A01 T02310082  RH  038%=      5-min Rain = 0
KCL1 241457Z 16003KT 23/09 A3006 RMK A01 T02340088  RH  039%=      5-min Rain = 0
KCL1 241458Z 18002KT 23/09 A3006 RMK A01 T02340091  RH  040%=      5-min Rain = 0
KCL1 241459Z 18003KT 23/09 A3006 RMK A01 T02320088  RH  040%=      5-min Rain = 0
KCL1 241500Z 15002KT 23/09 A3006 RMK A01 T02300090  RH  041%=      5-min Rain = 0
KCL1 241501Z 05000KT 23/09 A3006 RMK A01 T02290090  RH  041%=      5-min Rain = 0
KCL1 241502Z 03000KT 23/09 A3006 RMK A01 T02280086  RH  040%=      5-min Rain = 0
KCL1 241503Z 00000KT 23/09 A3006 RMK A01 T02290088  RH  041%=      5-min Rain = 0
KCL1 241504Z 16001KT 23/09 A3006 RMK A01 T02310091  RH  041%=      5-min Rain = 0
KCL1 241505Z 16002KT 23/09 A3006 RMK A01 T02330090  RH  040%=      5-min Rain = 0
KCL1 241506Z 19003KT 23/08 A3006 RMK A01 T02320083  RH  039%=      5-min Rain = 0
KCL1 241507Z 16003KT 23/08 A3006 RMK A01 T02300080  RH  038%=      5-min Rain = 0
KCL1 241508Z 17004KT 23/09 A3006 RMK A01 T02290089  RH  041%=      5-min Rain = 0
KCL1 241509Z 16003KT 23/09 A3006 RMK A01 T02290089  RH  041%=      5-min Rain = 0
KCL1 241510Z 17002KT 23/09 A3006 RMK A01 T02280090  RH  041%=      5-min Rain = 0
KCL1 241511Z 13001KT 23/09 A3006 RMK A01 T02280086  RH  040%=      5-min Rain = 0
KCL1 241512Z 05001KT 23/09 A3006 RMK A01 T02280085  RH  040%=      5-min Rain = 0
KCL1 241513Z 00000KT 23/09 A3006 RMK A01 T02270085  RH  040%=      5-min Rain = 0
KCL1 241514Z 26000KT 23/09 A3006 RMK A01 T02270088  RH  041%=      5-min Rain = 0
KCL1 241515Z 22001KT 23/09 A3006 RMK A01 T02280093  RH  042%=      5-min Rain = 0
KCL1 241516Z 33000KT 23/10 A3006 RMK A01 T02320097  RH  042%=      5-min Rain = 0
KCL1 241517Z 13001KT 24/09 A3006 RMK A01 T02350094  RH  041%=      5-min Rain = 0
KCL1 241518Z 14003KT 24/10 A3006 RMK A01 T02380095  RH  040%=      5-min Rain = 0
KCL1 241519Z 09001KT 24/09 A3006 RMK A01 T02400094  RH  040%=      5-min Rain = 0
KCL1 241520Z 04003KT 24/09 A3006 RMK A01 T02410092  RH  039%=      5-min Rain = 0
KCL1 241521Z 05002KT 24/09 A3006 RMK A01 T02400087  RH  038%=      5-min Rain = 0
KCL1 241522Z 09002KT 24/08 A3006 RMK A01 T02380084  RH  037%=      5-min Rain = 0
KCL1 241523Z 07002KT 24/09 A3006 RMK A01 T02380085  RH  038%=      5-min Rain = 0
KCL1 241524Z 10001KT 24/08 A3006 RMK A01 T02380083  RH  037%=      5-min Rain = 0
KCL1 241525Z 06002KT 24/09 A3006 RMK A01 T02390086  RH  038%=      5-min Rain = 0
KCL1 241526Z 03002KT 24/09 A3006 RMK A01 T02390087  RH  038%=      5-min Rain = 0
KCL1 241527Z 04000KT 24/09 A3006 RMK A01 T02380087  RH  038%=      5-min Rain = 0
KCL1 241528Z 00001KT 24/09 A3006 RMK A01 T02380088  RH  039%=      5-min Rain = 0
KCL1 241529Z 15001KT 24/09 A3006 RMK A01 T02390091  RH  039%=      5-min Rain = 0
KCL1 241530Z 15002KT 24/10 A3006 RMK A01 T02410095  RH  039%=      5-min Rain = 0
KCL1 241531Z 10003KT 24/10 A3006 RMK A01 T02440096  RH  039%=      5-min Rain = 0
KCL1 241532Z 12004KT 25/09 A3006 RMK A01 T02450094  RH  038%=      5-min Rain = 0
KCL1 241533Z 11002KT 24/09 A3006 RMK A01 T02440090  RH  037%=      5-min Rain = 0
KCL1 241534Z 11003KT 24/09 A3006 RMK A01 T02430094  RH  039%=      5-min Rain = 0
KCL1 241535Z 12005KT 24/10 A3006 RMK A01 T02420095  RH  039%=      5-min Rain = 0
KCL1 241536Z 13003KT 24/09 A3006 RMK A01 T02430090  RH  038%=      5-min Rain = 0
KCL1 241537Z 13002KT 24/09 A3006 RMK A01 T02400089  RH  038%=      5-min Rain = 0
KCL1 241538Z 13005KT 24/09 A3006 RMK A01 T02390091  RH  039%=      5-min Rain = 0
KCL1 241539Z 12002KT 24/09 A3006 RMK A01 T02390087  RH  038%=      5-min Rain = 0
KCL1 241540Z 13002KT 24/09 A3006 RMK A01 T02370090  RH  039%=      5-min Rain = 0
KCL1 241541Z 15004KT 24/09 A3006 RMK A01 T02380090  RH  039%=      5-min Rain = 0
KCL1 241542Z 12002KT 24/09 A3006 RMK A01 T02380089  RH  039%=      5-min Rain = 0
KCL1 241543Z 15003KT 24/09 A3005 RMK A01 T02380092  RH  040%=      5-min Rain = 0
KCL1 241544Z 11004KT 24/09 A3005 RMK A01 T02390091  RH  039%=      5-min Rain = 0
KCL1 241545Z 11004KT 24/09 A3005 RMK A01 T02410093  RH  039%=      5-min Rain = 0
KCL1 241546Z 08003KT 24/09 A3005 RMK A01 T02410090  RH  038%=      5-min Rain = 0
KCL1 241547Z 13004KT 24/09 A3005 RMK A01 T02400094  RH  039%=      5-min Rain = 0
KCL1 241548Z 14002KT 24/09 A3005 RMK A01 T02410090  RH  038%=      5-min Rain = 0
KCL1 241549Z 12005KT 24/09 A3005 RMK A01 T02410091  RH  038%=      5-min Rain = 0
KCL1 241550Z 09003KT 24/09 A3005 RMK A01 T02400094  RH  039%=      5-min Rain = 0
KCL1 241551Z 09001KT 24/09 A3005 RMK A01 T02400090  RH  038%=      5-min Rain = 0
KCL1 241552Z 05001KT 24/09 A3005 RMK A01 T02400094  RH  039%=      5-min Rain = 0
KCL1 241553Z 09002KT 24/09 A3005 RMK A01 T02410093  RH  039%=      5-min Rain = 0
KCL1 241554Z 09004KT 24/10 A3005 RMK A01 T02410096  RH  040%=      5-min Rain = 0
KCL1 241555Z 08005KT 24/10 A3005 RMK A01 T02420098  RH  040%=      5-min Rain = 0
KCL1 241556Z 09004KT 24/10 A3005 RMK A01 T02420096  RH  040%=      5-min Rain = 0
KCL1 241557Z 08003KT 24/09 A3005 RMK A01 T02410092  RH  039%=      5-min Rain = 0
KCL1 241558Z 08001KT 24/09 A3005 RMK A01 T02380090  RH  039%=      5-min Rain = 0
KCL1 241559Z 06004KT 24/10 A3005 RMK A01 T02370096  RH  041%=      5-min Rain = 0
KCL1 241600Z 07005KT 24/10 A3005 RMK A01 T02390096  RH  040%=      5-min Rain = 0
KCL1 241601Z 08003KT 24/10 A3005 RMK A01 T02390096  RH  040%=      5-min Rain = 0
KCL1 241602Z 06004KT 24/10 A3005 RMK A01 T02410102  RH  041%=      5-min Rain = 0
KCL1 241603Z 08005KT 24/10 A3005 RMK A01 T02430099  RH  040%=      5-min Rain = 0
KCL1 241604Z 11004KT 24/10 A3005 RMK A01 T02430100  RH  040%=      5-min Rain = 0
KCL1 241605Z 10007KT 24/10 A3005 RMK A01 T02440104  RH  041%=      5-min Rain = 0
KCL1 241606Z 10004KT 25/10 A3005 RMK A01 T02450102  RH  040%=      5-min Rain = 0
KCL1 241607Z 10005KT 25/10 A3005 RMK A01 T02460103  RH  041%=      5-min Rain = 0
KCL1 241608Z 12004KT 25/10 A3005 RMK A01 T02460101  RH  040%=      5-min Rain = 0
KCL1 241609Z 11005KT 25/10 A3005 RMK A01 T02470101  RH  040%=      5-min Rain = 0
KCL1 241610Z 10005KT 25/10 A3005 RMK A01 T02460100  RH  040%=      5-min Rain = 0
KCL1 241611Z 10003KT 25/10 A3005 RMK A01 T02450101  RH  040%=      5-min Rain = 0
KCL1 241612Z 06004KT 25/10 A3005 RMK A01 T02450102  RH  041%=      5-min Rain = 0
KCL1 241613Z 04003KT 25/10 A3005 RMK A01 T02450100  RH  040%=      5-min Rain = 0
KCL1 241614Z 09001KT 24/10 A3005 RMK A01 T02440101  RH  040%=      5-min Rain = 0
KCL1 241615Z 13002KT 25/11 A3005 RMK A01 T02470106  RH  041%=      5-min Rain = 0
KCL1 241616Z 14003KT 25/11 A3005 RMK A01 T02500105  RH  040%=      5-min Rain = 0
KCL1 241617Z 11005KT 25/11 A3005 RMK A01 T02520106  RH  040%=      5-min Rain = 0
KCL1 241618Z 11007KT 25/10 A3005 RMK A01 T02530104  RH  039%=      5-min Rain = 0
KCL1 241619Z 10006KT 25/10 A3005 RMK A01 T02490102  RH  039%=      5-min Rain = 0
KCL1 241620Z 11005KT 25/10 A3005 RMK A01 T02470102  RH  040%=      5-min Rain = 0
KCL1 241621Z 11004KT 25/10 A3005 RMK A01 T02450104  RH  041%=      5-min Rain = 0
KCL1 241622Z 12004KT 25/10 A3005 RMK A01 T02450102  RH  041%=      5-min Rain = 0
KCL1 241623Z 13002KT 25/10 A3005 RMK A01 T02450102  RH  041%=      5-min Rain = 0
KCL1 241624Z 18002KT 25/10 A3005 RMK A01 T02470102  RH  040%=      5-min Rain = 0
KCL1 241625Z 22002KT 25/10 A3005 RMK A01 T02470102  RH  040%=      5-min Rain = 0
KCL1 241626Z 28002KT 25/10 A3005 RMK A01 T02460101  RH  040%=      5-min Rain = 0
KCL1 241627Z 08003KT 25/11 A3005 RMK A01 T02460107  RH  042%=      5-min Rain = 0
KCL1 241628Z 08006KT 25/11 A3005 RMK A01 T02470105  RH  041%=      5-min Rain = 0
KCL1 241629Z 10005KT 25/11 A3005 RMK A01 T02470108  RH  042%=      5-min Rain = 0
KCL1 241630Z 12005KT 25/11 A3005 RMK A01 T02480105  RH  041%=      5-min Rain = 0
KCL1 241631Z 10004KT 25/11 A3005 RMK A01 T02490107  RH  041%=      5-min Rain = 0
KCL1 241632Z 10005KT 25/11 A3005 RMK A01 T02510106  RH  040%=      5-min Rain = 0
KCL1 241633Z 11003KT 25/10 A3005 RMK A01 T02500103  RH  039%=      5-min Rain = 0
KCL1 241634Z 10005KT 25/11 A3005 RMK A01 T02490108  RH  041%=      5-min Rain = 0
KCL1 241635Z 07004KT 25/11 A3005 RMK A01 T02520109  RH  041%=      5-min Rain = 0
KCL1 241636Z 08004KT 25/10 A3005 RMK A01 T02520104  RH  039%=      5-min Rain = 0
KCL1 241637Z 12005KT 25/11 A3005 RMK A01 T02490105  RH  040%=      5-min Rain = 0
KCL1 241638Z 15006KT 25/11 A3005 RMK A01 T02490108  RH  041%=      5-min Rain = 0
KCL1 241639Z 13006KT 25/11 A3005 RMK A01 T02500106  RH  040%=      5-min Rain = 0
KCL1 241640Z 15005KT 25/11 A3005 RMK A01 T02500105  RH  040%=      5-min Rain = 0
KCL1 241641Z 13005KT 25/11 A3005 RMK A01 T02480107  RH  041%=      5-min Rain = 0
KCL1 241642Z 14004KT 25/11 A3005 RMK A01 T02490106  RH  040%=      5-min Rain = 0
KCL1 241643Z 16005KT 25/11 A3005 RMK A01 T02510109  RH  041%=      5-min Rain = 0
KCL1 241644Z 17008KT 25/11 A3005 RMK A01 T02540109  RH  040%=      5-min Rain = 0
KCL1 241645Z 16009KT 25/10 A3005 RMK A01 T02530103  RH  039%=      5-min Rain = 0
KCL1 241646Z 16007KT 25/10 A3005 RMK A01 T02480103  RH  040%=      5-min Rain = 0
KCL1 241647Z 15004KT 25/10 A3005 RMK A01 T02470103  RH  040%=      5-min Rain = 0
KCL1 241648Z 17006KT 25/10 A3005 RMK A01 T02470103  RH  040%=      5-min Rain = 0
KCL1 241649Z 16005KT 25/11 A3005 RMK A01 T02490106  RH  040%=      5-min Rain = 0
KCL1 241650Z 15004KT 25/11 A3005 RMK A01 T02530106  RH  040%=      5-min Rain = 0
KCL1 241651Z 19005KT 25/10 A3005 RMK A01 T02530102  RH  039%=      5-min Rain = 0
KCL1 241652Z 17006KT 25/11 A3005 RMK A01 T02520105  RH  040%=      5-min Rain = 0
KCL1 241653Z 17008KT 25/11 A3005 RMK A01 T02520107  RH  040%=      5-min Rain = 0
KCL1 241654Z 17007KT 25/11 A3005 RMK A01 T02520107  RH  040%=      5-min Rain = 0
KCL1 241655Z 15007KT 25/11 A3005 RMK A01 T02540108  RH  040%=      5-min Rain = 0
KCL1 241656Z 16006KT 26/11 A3005 RMK A01 T02550107  RH  040%=      5-min Rain = 0
KCL1 241657Z 17005KT 26/11 A3005 RMK A01 T02560108  RH  040%=      5-min Rain = 0
KCL1 241658Z 14008KT 26/11 A3005 RMK A01 T02570108  RH  039%=      5-min Rain = 0
KCL1 241659Z 15006KT 26/11 A3005 RMK A01 T02580107  RH  039%=      5-min Rain = 0
KCL1 241700Z 14004KT 26/11 A3005 RMK A01 T02580105  RH  038%=      5-min Rain = 0
KCL1 241701Z 14002KT 26/10 A3005 RMK A01 T02560103  RH  038%=      5-min Rain = 0
KCL1 241702Z 13005KT 26/11 A3005 RMK A01 T02550105  RH  039%=      5-min Rain = 0
KCL1 241703Z 11005KT 26/11 A3005 RMK A01 T02560106  RH  039%=      5-min Rain = 0
KCL1 241704Z 11003KT 26/11 A3005 RMK A01 T02570105  RH  038%=      5-min Rain = 0
KCL1 241705Z 11002KT 26/10 A3005 RMK A01 T02570104  RH  038%=      5-min Rain = 0
KCL1 241706Z 17002KT 26/10 A3005 RMK A01 T02570104  RH  038%=      5-min Rain = 0
KCL1 241707Z 17005KT 26/11 A3005 RMK A01 T02600108  RH  039%=      5-min Rain = 0
KCL1 241708Z 16005KT 26/11 A3005 RMK A01 T02610108  RH  038%=      5-min Rain = 0
KCL1 241709Z 13006KT 26/11 A3005 RMK A01 T02620111  RH  039%=      5-min Rain = 0
KCL1 241710Z 14005KT 26/11 A3005 RMK A01 T02640108  RH  038%=      5-min Rain = 0
KCL1 241711Z 15004KT 27/11 A3005 RMK A01 T02650108  RH  038%=      5-min Rain = 0
KCL1 241712Z 14004KT 26/11 A3005 RMK A01 T02640110  RH  038%=      5-min Rain = 0
KCL1 241713Z 16002KT 26/10 A3005 RMK A01 T02640103  RH  036%=      5-min Rain = 0
KCL1 241714Z 12007KT 26/10 A3005 RMK A01 T02620104  RH  037%=      5-min Rain = 0
KCL1 241715Z 14005KT 26/10 A3005 RMK A01 T02590102  RH  037%=      5-min Rain = 0
KCL1 241716Z 14005KT 26/11 A3005 RMK A01 T02580106  RH  038%=      5-min Rain = 0
KCL1 241717Z 14003KT 26/11 A3005 RMK A01 T02590105  RH  038%=      5-min Rain = 0
KCL1 241718Z 18001KT 26/10 A3005 RMK A01 T02600103  RH  037%=      5-min Rain = 0
KCL1 241719Z 16002KT 26/11 A3005 RMK A01 T02600105  RH  038%=      5-min Rain = 0
KCL1 241720Z 12006KT 26/11 A3005 RMK A01 T02620108  RH  038%=      5-min Rain = 0
KCL1 241721Z 11005KT 26/11 A3005 RMK A01 T02620106  RH  038%=      5-min Rain = 0
KCL1 241722Z 11005KT 26/10 A3005 RMK A01 T02590102  RH  037%=      5-min Rain = 0
KCL1 241723Z 13004KT 26/10 A3005 RMK A01 T02570102  RH  037%=      5-min Rain = 0
KCL1 241724Z 13004KT 26/10 A3005 RMK A01 T02580104  RH  038%=      5-min Rain = 0
KCL1 241725Z 11005KT 26/11 A3005 RMK A01 T02590105  RH  038%=      5-min Rain = 0
KCL1 241726Z 10005KT 26/11 A3005 RMK A01 T02610107  RH  038%=      5-min Rain = 0
KCL1 241727Z 12004KT 26/10 A3004 RMK A01 T02630102  RH  036%=      5-min Rain = 0
KCL1 241728Z 09006KT 26/10 A3004 RMK A01 T02640104  RH  037%=      5-min Rain = 0
KCL1 241729Z 09005KT 26/10 A3004 RMK A01 T02640101  RH  036%=      5-min Rain = 0
KCL1 241730Z 12006KT 26/10 A3004 RMK A01 T02630103  RH  037%=      5-min Rain = 0
KCL1 241731Z 15006KT 26/11 A3004 RMK A01 T02640109  RH  038%=      5-min Rain = 0
KCL1 241732Z 15006KT 27/11 A3004 RMK A01 T02670107  RH  037%=      5-min Rain = 0
KCL1 241733Z 14008KT 27/10 A3004 RMK A01 T02690104  RH  035%=      5-min Rain = 0
KCL1 241734Z 16005KT 27/10 A3004 RMK A01 T02670097  RH  034%=      5-min Rain = 0
KCL1 241735Z 15006KT 26/10 A3004 RMK A01 T02640102  RH  036%=      5-min Rain = 0
KCL1 241736Z 14006KT 27/10 A3004 RMK A01 T02650101  RH  036%=      5-min Rain = 0
KCL1 241737Z 15005KT 27/10 A3004 RMK A01 T02660097  RH  035%=      5-min Rain = 0
KCL1 241738Z 13005KT 27/11 A3004 RMK A01 T02650105  RH  037%=      5-min Rain = 0
KCL1 241739Z 14004KT 27/10 A3004 RMK A01 T02670104  RH  036%=      5-min Rain = 0
KCL1 241740Z 16006KT 27/10 A3004 RMK A01 T02690104  RH  036%=      5-min Rain = 0
KCL1 241741Z 15005KT 27/10 A3004 RMK A01 T02690100  RH  035%=      5-min Rain = 0
KCL1 241742Z 16004KT 27/10 A3004 RMK A01 T02670100  RH  035%=      5-min Rain = 0
KCL1 241743Z 18002KT 27/10 A3004 RMK A01 T02660098  RH  035%=      5-min Rain = 0
KCL1 241744Z 17003KT 27/10 A3004 RMK A01 T02650098  RH  035%=      5-min Rain = 0
KCL1 241745Z 15003KT 27/11 A3004 RMK A01 T02660106  RH  037%=      5-min Rain = 0
KCL1 241746Z 13007KT 27/11 A3004 RMK A01 T02700109  RH  037%=      5-min Rain = 0
KCL1 241747Z 14006G11KT 27/11 A3004 RMK A01 T02740108  RH  035%=      5-min Rain = 0
KCL1 241748Z 12008KT 28/10 A3004 RMK A01 T02760104  RH  034%=      5-min Rain = 0
KCL1 241749Z 13004KT 28/10 A3004 RMK A01 T02750099  RH  033%=      5-min Rain = 0
KCL1 241750Z 12004KT 27/11 A3004 RMK A01 T02730106  RH  035%=      5-min Rain = 0
KCL1 241751Z 10007KT 27/11 A3004 RMK A01 T02740107  RH  035%=      5-min Rain = 0
KCL1 241752Z 10007KT 28/11 A3004 RMK A01 T02750105  RH  035%=      5-min Rain = 0
KCL1 241753Z 09007KT 27/10 A3004 RMK A01 T02730103  RH  034%=      5-min Rain = 0
KCL1 241754Z 10006KT 27/10 A3003 RMK A01 T02710103  RH  035%=      5-min Rain = 0
KCL1 241755Z 10005KT 27/10 A3004 RMK A01 T02700103  RH  035%=      5-min Rain = 0
KCL1 241756Z 10005KT 27/10 A3003 RMK A01 T02700098  RH  034%=      5-min Rain = 0
KCL1 241757Z 10006KT 27/10 A3003 RMK A01 T02690097  RH  034%=      5-min Rain = 0
KCL1 241758Z 11006KT 27/10 A3003 RMK A01 T02680097  RH  034%=      5-min Rain = 0
KCL1 241759Z 14008KT 27/10 A3003 RMK A01 T02690103  RH  035%=      5-min Rain = 0
KCL1 241800Z 17010KT 27/10 A3003 RMK A01 T02730097  RH  033%=      5-min Rain = 0
KCL1 241801Z 14008KT 27/10 A3003 RMK A01 T02730096  RH  033%=      5-min Rain = 0
KCL1 241802Z 13009KT 27/10 A3003 RMK A01 T02720099  RH  034%=      5-min Rain = 0
KCL1 241803Z 14008KT 27/10 A3003 RMK A01 T02730098  RH  033%=      5-min Rain = 0
KCL1 241804Z 13007KT 27/10 A3004 RMK A01 T02740100  RH  034%=      5-min Rain = 0
KCL1 241805Z 13005KT 28/10 A3004 RMK A01 T02750098  RH  033%=      5-min Rain = 0
KCL1 241806Z 12006KT 28/10 A3003 RMK A01 T02760098  RH  033%=      5-min Rain = 0
KCL1 241807Z 13005KT 28/10 A3003 RMK A01 T02760098  RH  033%=      5-min Rain = 0
KCL1 241808Z 15007G12KT 28/10 A3003 RMK A01 T02770101  RH  033%=      5-min Rain = 0
KCL1 241809Z 15006KT 28/10 A3003 RMK A01 T02780101  RH  033%=      5-min Rain = 0
KCL1 241810Z 15005KT 28/10 A3003 RMK A01 T02790099  RH  032%=      5-min Rain = 0
KCL1 241811Z 14006KT 28/10 A3003 RMK A01 T02800099  RH  032%=      5-min Rain = 0
KCL1 241812Z 15006KT 28/10 A3003 RMK A01 T02790097  RH  032%=      5-min Rain = 0
KCL1 241813Z 12007KT 28/10 A3003 RMK A01 T02760099  RH  033%=      5-min Rain = 0
KCL1 241814Z 14009KT 28/10 A3003 RMK A01 T02750103  RH  034%=      5-min Rain = 0
KCL1 241815Z 18011KT 28/10 A3003 RMK A01 T02770101  RH  033%=      5-min Rain = 0
KCL1 241816Z 16009KT 28/10 A3003 RMK A01 T02760097  RH  032%=      5-min Rain = 0
KCL1 241817Z 16005KT 28/10 A3003 RMK A01 T02750101  RH  034%=      5-min Rain = 0
KCL1 241818Z 18007KT 28/10 A3003 RMK A01 T02760099  RH  033%=      5-min Rain = 0
KCL1 241819Z 19009KT 28/10 A3003 RMK A01 T02760097  RH  033%=      5-min Rain = 0
KCL1 241820Z 19007KT 28/10 A3003 RMK A01 T02750097  RH  033%=      5-min Rain = 0
KCL1 241821Z 21007KT 27/10 A3003 RMK A01 T02730096  RH  033%=      5-min Rain = 0
KCL1 241822Z 21007KT 27/10 A3003 RMK A01 T02720095  RH  033%=      5-min Rain = 0
KCL1 241823Z 22006KT 27/10 A3003 RMK A01 T02690095  RH  033%=      5-min Rain = 0
KCL1 241824Z 21003KT 27/10 A3003 RMK A01 T02680096  RH  034%=      5-min Rain = 0
KCL1 241825Z 14005KT 27/10 A3003 RMK A01 T02680101  RH  035%=      5-min Rain = 0
KCL1 241826Z 17005KT 27/10 A3003 RMK A01 T02720101  RH  034%=      5-min Rain = 0
KCL1 241827Z 20005KT 27/10 A3003 RMK A01 T02730097  RH  033%=      5-min Rain = 0
KCL1 241828Z 19005KT 27/10 A3003 RMK A01 T02740097  RH  033%=      5-min Rain = 0
KCL1 241829Z 15005KT 28/10 A3003 RMK A01 T02750098  RH  033%=      5-min Rain = 0
KCL1 241830Z 16004KT 27/10 A3003 RMK A01 T02740095  RH  032%=      5-min Rain = 0
KCL1 241831Z 17009KT 27/10 A3003 RMK A01 T02730097  RH  033%=      5-min Rain = 0
KCL1 241832Z 18010KT 27/10 A3003 RMK A01 T02730097  RH  033%=      5-min Rain = 0
KCL1 241833Z 17010KT 27/10 A3003 RMK A01 T02740100  RH  034%=      5-min Rain = 0
KCL1 241834Z 15009KT 28/10 A3003 RMK A01 T02760099  RH  033%=      5-min Rain = 0
KCL1 241835Z 16009KT 28/10 A3003 RMK A01 T02750099  RH  033%=      5-min Rain = 0
KCL1 241836Z 16008G13KT 27/10 A3003 RMK A01 T02740100  RH  034%=      5-min Rain = 0
KCL1 241837Z 15011KT 27/10 A3002 RMK A01 T02730100  RH  034%=      5-min Rain = 0
KCL1 241838Z 16009KT 27/10 A3002 RMK A01 T02730098  RH  033%=      5-min Rain = 0
KCL1 241839Z 16010KT 27/10 A3002 RMK A01 T02720099  RH  034%=      5-min Rain = 0
KCL1 241840Z 15007KT 27/10 A3002 RMK A01 T02710099  RH  034%=      5-min Rain = 0
KCL1 241841Z 15007KT 27/10 A3002 RMK A01 T02710100  RH  034%=      5-min Rain = 0
KCL1 241842Z 15006KT 27/10 A3002 RMK A01 T02720102  RH  034%=      5-min Rain = 0
KCL1 241843Z 17006KT 27/10 A3002 RMK A01 T02730100  RH  034%=      5-min Rain = 0
KCL1 241844Z 17003KT 27/10 A3002 RMK A01 T02740100  RH  034%=      5-min Rain = 0
KCL1 241845Z 13003KT 27/10 A3002 RMK A01 T02740099  RH  033%=      5-min Rain = 0
KCL1 241846Z 12004KT 27/10 A3002 RMK A01 T02740098  RH  033%=      5-min Rain = 0
KCL1 241847Z 11002KT 27/10 A3002 RMK A01 T02740101  RH  034%=      5-min Rain = 0
KCL1 241848Z 17006G13KT 28/10 A3002 RMK A01 T02750099  RH  033%=      5-min Rain = 0
KCL1 241849Z 17008KT 28/10 A3002 RMK A01 T02770103  RH  034%=      5-min Rain = 0
KCL1 241850Z 17005KT 28/10 A3002 RMK A01 T02780101  RH  033%=      5-min Rain = 0
KCL1 241851Z 16012KT 28/10 A3002 RMK A01 T02770104  RH  034%=      5-min Rain = 0
KCL1 241852Z 15009KT 28/10 A3002 RMK A01 T02770104  RH  034%=      5-min Rain = 0
KCL1 241853Z 19009KT 28/11 A3002 RMK A01 T02780106  RH  034%=      5-min Rain = 0
KCL1 241854Z 18008G13KT 28/10 A3002 RMK A01 T02800100  RH  033%=      5-min Rain = 0
KCL1 241855Z 17006KT 28/10 A3002 RMK A01 T02770102  RH  033%=      5-min Rain = 0
KCL1 241856Z 16007KT 28/10 A3002 RMK A01 T02770104  RH  034%=      5-min Rain = 0
KCL1 241857Z 14008KT 28/10 A3002 RMK A01 T02790103  RH  033%=      5-min Rain = 0
KCL1 241858Z 14007KT 28/11 A3002 RMK A01 T02790105  RH  034%=      5-min Rain = 0
KCL1 241859Z 20008KT 28/10 A3002 RMK A01 T02800103  RH  033%=      5-min Rain = 0
KCL1 241900Z 20007KT 28/10 A3002 RMK A01 T02800101  RH  033%=      5-min Rain = 0
KCL1 241901Z 19007KT 28/10 A3002 RMK A01 T02790100  RH  033%=      5-min Rain = 0
KCL1 241902Z 20008KT 28/10 A3002 RMK A01 T02770099  RH  033%=      5-min Rain = 0
KCL1 241903Z 18006KT 28/10 A3002 RMK A01 T02750098  RH  033%=      5-min Rain = 0
KCL1 241904Z 20002KT 28/10 A3002 RMK A01 T02750100  RH  033%=      5-min Rain = 0
KCL1 241905Z 24001KT 28/10 A3002 RMK A01 T02750100  RH  033%=      5-min Rain = 0
KCL1 241906Z 18003KT 28/10 A3002 RMK A01 T02750100  RH  033%=      5-min Rain = 0
KCL1 241907Z 21002KT 28/10 A3002 RMK A01 T02760099  RH  033%=      5-min Rain = 0
KCL1 241908Z 21004KT 28/10 A3002 RMK A01 T02770103  RH  034%=      5-min Rain = 0
KCL1 241909Z 25003KT 28/10 A3002 RMK A01 T02810104  RH  033%=      5-min Rain = 0
KCL1 241910Z 23005KT 28/10 A3001 RMK A01 T02830103  RH  033%=      5-min Rain = 0
KCL1 241911Z 21009KT 28/10 A3001 RMK A01 T02840103  RH  032%=      5-min Rain = 0
KCL1 241912Z 18007KT 28/10 A3002 RMK A01 T02840102  RH  032%=      5-min Rain = 0
KCL1 241913Z 19010KT 28/10 A3001 RMK A01 T02820103  RH  033%=      5-min Rain = 0
KCL1 241914Z 17007KT 28/10 A3002 RMK A01 T02820103  RH  033%=      5-min Rain = 0
KCL1 241915Z 15007KT 28/10 A3002 RMK A01 T02810101  RH  032%=      5-min Rain = 0
KCL1 241916Z 18007KT 28/10 A3001 RMK A01 T02790103  RH  033%=      5-min Rain = 0
KCL1 241917Z 15007KT 28/10 A3001 RMK A01 T02790102  RH  033%=      5-min Rain = 0
KCL1 241918Z 14006KT 28/10 A3001 RMK A01 T02800102  RH  033%=      5-min Rain = 0
KCL1 241919Z 15006KT 28/10 A3001 RMK A01 T02810100  RH  032%=      5-min Rain = 0
KCL1 241920Z 18005KT 28/10 A3001 RMK A01 T02800102  RH  033%=      5-min Rain = 0
KCL1 241921Z 22002KT 28/10 A3001 RMK A01 T02790098  RH  032%=      5-min Rain = 0
KCL1 241922Z 23003KT 28/10 A3001 RMK A01 T02780095  RH  032%=      5-min Rain = 0
KCL1 241923Z 17002KT 28/10 A3001 RMK A01 T02760098  RH  033%=      5-min Rain = 0
KCL1 241924Z 17006G11KT 28/10 A3001 RMK A01 T02770102  RH  034%=      5-min Rain = 0
KCL1 241925Z 16009KT 28/11 A3001 RMK A01 T02790105  RH  034%=      5-min Rain = 0
KCL1 241926Z 16008KT 28/11 A3001 RMK A01 T02820105  RH  033%=      5-min Rain = 0
KCL1 241927Z 16009KT 28/11 A3001 RMK A01 T02830105  RH  033%=      5-min Rain = 0
KCL1 241928Z 18005G10KT 28/10 A3001 RMK A01 T02840102  RH  032%=      5-min Rain = 0
KCL1 241929Z 14010KT 28/11 A30 RMK A01 T02830105  RH  033%=      5-min Rain = 0
KCL1 241930Z 15010KT 29/11 A30 RMK A01 T02850106  RH  033%=      5-min Rain = 0
KCL1 241931Z 19009KT 29/11 A30 RMK A01 T02870105  RH  032%=      5-min Rain = 0
KCL1 241932Z 19010KT 29/10 A30 RMK A01 T02880100  RH  031%=      5-min Rain = 0
KCL1 241933Z 19009KT 29/10 A3001 RMK A01 T02870103  RH  032%=      5-min Rain = 0
KCL1 241934Z 21006KT 29/10 A3001 RMK A01 T02890098  RH  030%=      5-min Rain = 0
KCL1 241935Z 22007KT 29/10 A3001 RMK A01 T02860097  RH  031%=      5-min Rain = 0
KCL1 241936Z 20006KT 28/10 A3001 RMK A01 T02840097  RH  031%=      5-min Rain = 0
KCL1 241937Z 21006KT 28/10 A3001 RMK A01 T02840097  RH  031%=      5-min Rain = 0
KCL1 241938Z 21005KT 28/10 A3001 RMK A01 T02840096  RH  031%=      5-min Rain = 0
KCL1 241939Z 18004KT 29/10 A3001 RMK A01 T02850098  RH  031%=      5-min Rain = 0
KCL1 241940Z 18004KT 29/09 A30 RMK A01 T02850094  RH  030%=      5-min Rain = 0
KCL1 241941Z 16005KT 28/10 A30 RMK A01 T02830096  RH  031%=      5-min Rain = 0
KCL1 241942Z 13008KT 28/10 A30 RMK A01 T02820102  RH  033%=      5-min Rain = 0
KCL1 241943Z 13011KT 28/10 A30 RMK A01 T02830101  RH  032%=      5-min Rain = 0
KCL1 241944Z 18009KT 28/10 A30 RMK A01 T02840102  RH  032%=      5-min Rain = 0
KCL1 241945Z 18011KT 29/10 A30 RMK A01 T02860100  RH  031%=      5-min Rain = 0
KCL1 241946Z 18009KT 29/10 A30 RMK A01 T02880099  RH  031%=      5-min Rain = 0
KCL1 241947Z 18010KT 29/10 A30 RMK A01 T02880101  RH  031%=      5-min Rain = 0
KCL1 241948Z 18007KT 29/10 A30 RMK A01 T02880097  RH  030%=      5-min Rain = 0
KCL1 241949Z 17007KT 29/10 A30 RMK A01 T02870102  RH  032%=      5-min Rain = 0
KCL1 241950Z 17007KT 29/10 A30 RMK A01 T02890099  RH  031%=      5-min Rain = 0
KCL1 241951Z 18004KT 29/10 A30 RMK A01 T02870095  RH  030%=      5-min Rain = 0
KCL1 241952Z 17003KT 28/09 A30 RMK A01 T02830094  RH  031%=      5-min Rain = 0
KCL1 241953Z 12005KT 28/10 A30 RMK A01 T02810097  RH  032%=      5-min Rain = 0
KCL1 241954Z 13008KT 28/10 A30 RMK A01 T02820098  RH  032%=      5-min Rain = 0
KCL1 241955Z 11005KT 29/10 A30 RMK A01 T02850095  RH  031%=      5-min Rain = 0
KCL1 241956Z 10004KT 28/09 A30 RMK A01 T02840093  RH  030%=      5-min Rain = 0
KCL1 241957Z 11004KT 28/09 A30 RMK A01 T02820092  RH  030%=      5-min Rain = 0
KCL1 241958Z 11005KT 28/10 A30 RMK A01 T02800096  RH  032%=      5-min Rain = 0
KCL1 241959Z 15005KT 28/10 A30 RMK A01 T02810097  RH  032%=      5-min Rain = 0
KCL1 242000Z 15009KT 28/11 A30 RMK A01 T02840105  RH  033%=      5-min Rain = 0
KCL1 242001Z 14008KT 29/10 A30 RMK A01 T02880098  RH  031%=      5-min Rain = 0
KCL1 242002Z 16005KT 29/10 A30 RMK A01 T02860101  RH  032%=      5-min Rain = 0
KCL1 242003Z 17003KT 29/10 A30 RMK A01 T02860101  RH  032%=      5-min Rain = 0
KCL1 242004Z 15004KT 29/11 A30 RMK A01 T02890105  RH  032%=      5-min Rain = 0
KCL1 242005Z 16005KT 29/10 A30 RMK A01 T02920102  RH  031%=      5-min Rain = 0
KCL1 242006Z 12006KT 29/10 A30 RMK A01 T02920101  RH  031%=      5-min Rain = 0
KCL1 242007Z 10003KT 29/10 A30 RMK A01 T02910098  RH  030%=      5-min Rain = 0
KCL1 242008Z 12002KT 29/10 A2999 RMK A01 T02870096  RH  030%=      5-min Rain = 0
KCL1 242009Z 14007G12KT 29/10 A2999 RMK A01 T02860098  RH  031%=      5-min Rain = 0
KCL1 242010Z 15009KT 29/10 A2999 RMK A01 T02870102  RH  032%=      5-min Rain = 0
KCL1 242011Z 14012KT 29/10 A2999 RMK A01 T02910101  RH  031%=      5-min Rain = 0
KCL1 242012Z 14009KT 29/10 A2999 RMK A01 T02920095  RH  029%=      5-min Rain = 0
KCL1 242013Z 15009KT 29/10 A2999 RMK A01 T02910098  RH  030%=      5-min Rain = 0
KCL1 242014Z 15008KT 29/10 A30 RMK A01 T02900096  RH  030%=      5-min Rain = 0
KCL1 242015Z 16005KT 29/10 A30 RMK A01 T02890095  RH  030%=      5-min Rain = 0
KCL1 242016Z 19001KT 29/09 A2999 RMK A01 T02870090  RH  029%=      5-min Rain = 0
KCL1 242017Z 24001KT 29/10 A2999 RMK A01 T02860096  RH  031%=      5-min Rain = 0
KCL1 242018Z 34002KT 29/09 A2999 RMK A01 T02880093  RH  030%=      5-min Rain = 0
KCL1 242019Z 06001KT 29/09 A2999 RMK A01 T02880092  RH  029%=      5-min Rain = 0
KCL1 242020Z 19004G10KT 29/09 A2999 RMK A01 T02880093  RH  030%=      5-min Rain = 0
KCL1 242021Z 15009KT 29/10 A2999 RMK A01 T02890099  RH  031%=      5-min Rain = 0
KCL1 242022Z 14010KT 29/10 A2999 RMK A01 T02920101  RH  031%=      5-min Rain = 0
KCL1 242023Z 13008KT 29/10 A2999 RMK A01 T02930098  RH  030%=      5-min Rain = 0
KCL1 242024Z 15006KT 29/10 A2999 RMK A01 T02910097  RH  030%=      5-min Rain = 0
KCL1 242025Z 12008G15KT 29/10 A2999 RMK A01 T02900099  RH  030%=      5-min Rain = 0
KCL1 242026Z 14012KT 29/10 A2999 RMK A01 T02920104  RH  031%=      5-min Rain = 0
KCL1 242027Z 15009KT 29/10 A2999 RMK A01 T02940097  RH  029%=      5-min Rain = 0
KCL1 242028Z 15006KT 29/10 A2999 RMK A01 T02930097  RH  029%=      5-min Rain = 0
KCL1 242029Z 15009KT 29/10 A2999 RMK A01 T02920098  RH  030%=      5-min Rain = 0
KCL1 242030Z 15008KT 29/09 A2999 RMK A01 T02910094  RH  029%=      5-min Rain = 0
KCL1 242031Z 14007KT 29/10 A2999 RMK A01 T02890097  RH  030%=      5-min Rain = 0
KCL1 242032Z 16011KT 29/10 A2999 RMK A01 T02900101  RH  031%=      5-min Rain = 0
KCL1 242033Z 17009KT 29/10 A2999 RMK A01 T02940097  RH  029%=      5-min Rain = 0
KCL1 242034Z 15007KT 29/10 A2999 RMK A01 T02940095  RH  029%=      5-min Rain = 0
KCL1 242035Z 18005G11KT 29/10 A2999 RMK A01 T02910097  RH  030%=      5-min Rain = 0
KCL1 242036Z 20010G15KT 29/10 A2998 RMK A01 T02920097  RH  030%=      5-min Rain = 0
KCL1 242037Z 20010KT 29/09 A2999 RMK A01 T02930093  RH  029%=      5-min Rain = 0
KCL1 242038Z 22005KT 29/09 A2998 RMK A01 T02930092  RH  029%=      5-min Rain = 0
KCL1 242039Z 19003KT 29/09 A2998 RMK A01 T02920092  RH  029%=      5-min Rain = 0
KCL1 242040Z 16002KT 29/09 A2998 RMK A01 T02900092  RH  029%=      5-min Rain = 0
KCL1 242041Z 12001KT 29/09 A2998 RMK A01 T02900091  RH  029%=      5-min Rain = 0
KCL1 242042Z 13003KT 29/09 A2998 RMK A01 T02890093  RH  029%=      5-min Rain = 0
KCL1 242043Z 13006KT 29/10 A2998 RMK A01 T02900097  RH  030%=      5-min Rain = 0
KCL1 242044Z 10008KT 29/10 A2998 RMK A01 T02920100  RH  030%=      5-min Rain = 0
KCL1 242045Z 14007KT 29/10 A2998 RMK A01 T02930100  RH  030%=      5-min Rain = 0
KCL1 242046Z 16008KT 30/10 A2998 RMK A01 T02950101  RH  030%=      5-min Rain = 0
KCL1 242047Z 15009KT 30/10 A2998 RMK A01 T02970102  RH  030%=      5-min Rain = 0
KCL1 242048Z 14009KT 30/10 A2998 RMK A01 T02970097  RH  029%=      5-min Rain = 0
KCL1 242049Z 15006KT 30/10 A2998 RMK A01 T02950097  RH  029%=      5-min Rain = 0
KCL1 242050Z 15006KT 29/10 A2998 RMK A01 T02920096  RH  029%=      5-min Rain = 0
KCL1 242051Z 20009KT 29/10 A2998 RMK A01 T02920096  RH  029%=      5-min Rain = 0
KCL1 242052Z 20007KT 30/09 A2998 RMK A01 T02950093  RH  028%=      5-min Rain = 0
KCL1 242053Z 18009KT 30/09 A2998 RMK A01 T02970094  RH  028%=      5-min Rain = 0
KCL1 242054Z 21007KT 30/09 A2998 RMK A01 T02980090  RH  027%=      5-min Rain = 0
KCL1 242055Z 20007KT 30/09 A2998 RMK A01 T02970090  RH  027%=      5-min Rain = 0
KCL1 242056Z 18005KT 30/09 A2998 RMK A01 T02960087  RH  027%=      5-min Rain = 0
KCL1 242057Z 18004KT 29/09 A2998 RMK A01 T02940086  RH  027%=      5-min Rain = 0
KCL1 242058Z 16003KT 29/09 A2998 RMK A01 T02920090  RH  028%=      5-min Rain = 0
KCL1 242059Z 17005KT 29/09 A2998 RMK A01 T02930094  RH  029%=      5-min Rain = 0
KCL1 242100Z 16004KT 30/10 A2998 RMK A01 T02950096  RH  029%=      5-min Rain = 0
KCL1 242101Z 15005KT 30/10 A2998 RMK A01 T02980104  RH  030%=      5-min Rain = 0
KCL1 242102Z 13006KT 30/10 A2998 RMK A01 T03020104  RH  029%=      5-min Rain = 0
KCL1 242103Z 15009KT 31/10 A2998 RMK A01 T03050098  RH  028%=      5-min Rain = 0
KCL1 242104Z 14010KT 30/10 A2998 RMK A01 T03020097  RH  028%=      5-min Rain = 0
KCL1 242105Z 15009KT 30/10 A2998 RMK A01 T02990097  RH  028%=      5-min Rain = 0
KCL1 242106Z 15008KT 30/09 A2998 RMK A01 T02970094  RH  028%=      5-min Rain = 0
KCL1 242107Z 14007KT 30/10 A2998 RMK A01 T02950096  RH  029%=      5-min Rain = 0
KCL1 242108Z 17008KT 29/10 A2998 RMK A01 T02940095  RH  029%=      5-min Rain = 0
KCL1 242109Z 17006KT 29/09 A2998 RMK A01 T02940091  RH  028%=      5-min Rain = 0
KCL1 242110Z 15004KT 29/09 A2998 RMK A01 T02920093  RH  029%=      5-min Rain = 0
KCL1 242111Z 15004KT 29/10 A2998 RMK A01 T02930097  RH  030%=      5-min Rain = 0
KCL1 242112Z 13005G10KT 29/10 A2998 RMK A01 T02940099  RH  030%=      5-min Rain = 0
KCL1 242113Z 15008KT 30/10 A2998 RMK A01 T02970100  RH  029%=      5-min Rain = 0
KCL1 242114Z 13009KT 30/10 A2998 RMK A01 T02980100  RH  029%=      5-min Rain = 0
KCL1 242115Z 13011KT 30/10 A2998 RMK A01 T02980099  RH  029%=      5-min Rain = 0
KCL1 242116Z 13009KT 30/10 A2998 RMK A01 T02970099  RH  029%=      5-min Rain = 0
KCL1 242117Z 14012KT 30/10 A2997 RMK A01 T02960100  RH  030%=      5-min Rain = 0
KCL1 242118Z 13014KT 30/10 A2997 RMK A01 T02950098  RH  029%=      5-min Rain = 0
KCL1 242119Z 14013KT 30/10 A2997 RMK A01 T02950100  RH  030%=      5-min Rain = 0
KCL1 242120Z 15010G16KT 30/10 A2997 RMK A01 T02950103  RH  030%=      5-min Rain = 0
KCL1 242121Z 13011KT 30/10 A2997 RMK A01 T02980102  RH  030%=      5-min Rain = 0
KCL1 242122Z 13011KT 30/10 A2997 RMK A01 T02990096  RH  028%=      5-min Rain = 0
KCL1 242123Z 13007KT 30/09 A2997 RMK A01 T02960094  RH  028%=      5-min Rain = 0
KCL1 242124Z 13006KT 30/10 A2997 RMK A01 T02950096  RH  029%=      5-min Rain = 0
KCL1 242125Z 13007KT 29/09 A2997 RMK A01 T02940093  RH  029%=      5-min Rain = 0
KCL1 242126Z 16007KT 29/10 A2997 RMK A01 T02940097  RH  029%=      5-min Rain = 0
KCL1 242127Z 15005KT 29/10 A2997 RMK A01 T02940099  RH  030%=      5-min Rain = 0
KCL1 242128Z 15006KT 29/10 A2997 RMK A01 T02940097  RH  029%=      5-min Rain = 0
KCL1 242129Z 12007KT 30/10 A2997 RMK A01 T02950100  RH  030%=      5-min Rain = 0
KCL1 242130Z 12007KT 30/10 A2997 RMK A01 T02960100  RH  030%=      5-min Rain = 0
KCL1 242131Z 12008KT 30/10 A2997 RMK A01 T02970096  RH  029%=      5-min Rain = 0
KCL1 242132Z 12008KT 30/10 A2997 RMK A01 T02960097  RH  029%=      5-min Rain = 0
KCL1 242133Z 11007KT 30/10 A2997 RMK A01 T02950101  RH  030%=      5-min Rain = 0
KCL1 242134Z 13005KT 30/10 A2997 RMK A01 T02970103  RH  030%=      5-min Rain = 0
KCL1 242135Z 14006KT 30/10 A2997 RMK A01 T02990098  RH  029%=      5-min Rain = 0
KCL1 242136Z 14008KT 30/10 A2997 RMK A01 T02980099  RH  029%=      5-min Rain = 0
KCL1 242137Z 14010KT 30/10 A2997 RMK A01 T02980102  RH  030%=      5-min Rain = 0
KCL1 242138Z 13014KT 30/10 A2997 RMK A01 T03000100  RH  029%=      5-min Rain = 0
KCL1 242139Z 12011KT 30/10 A2997 RMK A01 T02990095  RH  028%=      5-min Rain = 0
KCL1 242140Z 13007KT 30/10 A2997 RMK A01 T02960095  RH  029%=      5-min Rain = 0
KCL1 242141Z 16005KT 30/10 A2997 RMK A01 T02950098  RH  029%=      5-min Rain = 0
KCL1 242142Z 19007KT 30/10 A2997 RMK A01 T02960100  RH  030%=      5-min Rain = 0
KCL1 242143Z 20007KT 30/10 A2997 RMK A01 T02990097  RH  028%=      5-min Rain = 0
KCL1 242144Z 20010KT 30/10 A2997 RMK A01 T03010097  RH  028%=      5-min Rain = 0
KCL1 242145Z 20009KT 30/10 A2997 RMK A01 T03030095  RH  027%=      5-min Rain = 0
KCL1 242146Z 22005KT 30/09 A2997 RMK A01 T03000091  RH  027%=      5-min Rain = 0
KCL1 242147Z 21008KT 30/09 A2997 RMK A01 T02980093  RH  028%=      5-min Rain = 0
KCL1 242148Z 19010KT 30/09 A2997 RMK A01 T02980092  RH  028%=      5-min Rain = 0
KCL1 242149Z 21006G11KT 30/09 A2997 RMK A01 T02990087  RH  027%=      5-min Rain = 0
KCL1 242150Z 16005KT 30/09 A2997 RMK A01 T02970091  RH  028%=      5-min Rain = 0
KCL1 242151Z 13008G15KT 30/10 A2997 RMK A01 T02960095  RH  029%=      5-min Rain = 0
KCL1 242152Z 16010G15KT 30/10 A2996 RMK A01 T02980098  RH  029%=      5-min Rain = 0
KCL1 242153Z 17005KT 30/10 A2997 RMK A01 T03000095  RH  028%=      5-min Rain = 0
KCL1 242154Z 14005KT 30/10 A2996 RMK A01 T03010098  RH  028%=      5-min Rain = 0
KCL1 242155Z 16004KT 30/10 A2996 RMK A01 T03020095  RH  028%=      5-min Rain = 0
KCL1 242156Z 14006KT 30/10 A2996 RMK A01 T03020095  RH  028%=      5-min Rain = 0
KCL1 242157Z 14006KT 30/10 A2996 RMK A01 T03000096  RH  028%=      5-min Rain = 0
KCL1 242158Z 17006KT 30/10 A2996 RMK A01 T03000095  RH  028%=      5-min Rain = 0
KCL1 242159Z 18009KT 30/09 A2996 RMK A01 T03010094  RH  028%=      5-min Rain = 0
KCL1 242200Z 17007KT 30/10 A2996 RMK A01 T03020095  RH  028%=      5-min Rain = 0
KCL1 242201Z 16010KT 30/10 A2996 RMK A01 T03030097  RH  028%=      5-min Rain = 0
KCL1 242202Z 16009KT 30/09 A2996 RMK A01 T03030094  RH  027%=      5-min Rain = 0
KCL1 242203Z 17009KT 30/09 A2996 RMK A01 T03020094  RH  027%=      5-min Rain = 0
KCL1 242204Z 16010KT 30/09 A2996 RMK A01 T03010092  RH  027%=      5-min Rain = 0
KCL1 242205Z 17008G14KT 30/09 A2996 RMK A01 T03010090  RH  027%=      5-min Rain = 0
KCL1 242206Z 19003KT 30/09 A2996 RMK A01 T02980090  RH  027%=      5-min Rain = 0
KCL1 242207Z 23004KT 30/09 A2996 RMK A01 T02980092  RH  028%=      5-min Rain = 0
KCL1 242208Z 20007KT 30/09 A2996 RMK A01 T03020091  RH  027%=      5-min Rain = 0
KCL1 242209Z 20005KT 30/09 A2996 RMK A01 T03030089  RH  026%=      5-min Rain = 0
KCL1 242210Z 22005KT 30/09 A2996 RMK A01 T03030086  RH  026%=      5-min Rain = 0
KCL1 242211Z 20003KT 30/09 A2996 RMK A01 T03020085  RH  026%=      5-min Rain = 0
KCL1 242212Z 17004KT 30/09 A2996 RMK A01 T03020088  RH  026%=      5-min Rain = 0
KCL1 242213Z 18007KT 30/09 A2996 RMK A01 T03030090  RH  027%=      5-min Rain = 0
KCL1 242214Z 17010KT 30/09 A2996 RMK A01 T03040092  RH  027%=      5-min Rain = 0
KCL1 242215Z 16004KT 30/09 A2996 RMK A01 T03030091  RH  027%=      5-min Rain = 0
KCL1 242216Z 14008G13KT 30/10 A2996 RMK A01 T03020098  RH  028%=      5-min Rain = 0
KCL1 242217Z 15006KT 30/09 A2996 RMK A01 T03020091  RH  027%=      5-min Rain = 0
KCL1 242218Z 16002KT 30/09 A2996 RMK A01 T03000087  RH  027%=      5-min Rain = 0
KCL1 242219Z 15003KT 30/09 A2996 RMK A01 T02980086  RH  027%=      5-min Rain = 0
KCL1 242220Z 12006KT 30/09 A2996 RMK A01 T02970093  RH  028%=      5-min Rain = 0
KCL1 242221Z 13007KT 30/09 A2996 RMK A01 T02980088  RH  027%=      5-min Rain = 0
KCL1 242222Z 19007KT 30/09 A2996 RMK A01 T02980093  RH  028%=      5-min Rain = 0
KCL1 242223Z 22008KT 30/09 A2996 RMK A01 T02990092  RH  027%=      5-min Rain = 0
KCL1 242224Z 20007KT 30/09 A2996 RMK A01 T03010089  RH  027%=      5-min Rain = 0
KCL1 242225Z 18006KT 30/09 A2996 RMK A01 T03000089  RH  027%=      5-min Rain = 0
KCL1 242226Z 18007KT 30/09 A2996 RMK A01 T02990092  RH  027%=      5-min Rain = 0
KCL1 242227Z 15008KT 30/09 A2996 RMK A01 T03000090  RH  027%=      5-min Rain = 0
KCL1 242228Z 14006KT 30/09 A2995 RMK A01 T03000086  RH  026%=      5-min Rain = 0
KCL1 242229Z 14010KT 30/09 A2995 RMK A01 T02980089  RH  027%=      5-min Rain = 0
KCL1 242230Z 17009KT 30/09 A2995 RMK A01 T02990093  RH  028%=      5-min Rain = 0
KCL1 242231Z 17006KT 30/10 A2995 RMK A01 T03010096  RH  028%=      5-min Rain = 0
KCL1 242232Z 15008KT 30/10 A2995 RMK A01 T03040097  RH  028%=      5-min Rain = 0
KCL1 242233Z 15008KT 31/10 A2995 RMK A01 T03050097  RH  028%=      5-min Rain = 0
KCL1 242234Z 15008KT 30/10 A2995 RMK A01 T03040095  RH  027%=      5-min Rain = 0
KCL1 242235Z 14006KT 30/09 A2995 RMK A01 T03020092  RH  027%=      5-min Rain = 0
KCL1 242236Z 13007KT 30/10 A2995 RMK A01 T03000095  RH  028%=      5-min Rain = 0
KCL1 242237Z 13007KT 30/09 A2995 RMK A01 T03000094  RH  028%=      5-min Rain = 0
KCL1 242238Z 13008KT 30/10 A2995 RMK A01 T03000095  RH  028%=      5-min Rain = 0
KCL1 242239Z 15006KT 30/10 A2995 RMK A01 T03000098  RH  028%=      5-min Rain = 0
KCL1 242240Z 14011KT 30/10 A2995 RMK A01 T03020098  RH  028%=      5-min Rain = 0
KCL1 242241Z 15009KT 30/10 A2995 RMK A01 T03030095  RH  028%=      5-min Rain = 0
KCL1 242242Z 18010KT 30/10 A2995 RMK A01 T03030095  RH  027%=      5-min Rain = 0
KCL1 242243Z 18010KT 30/09 A2995 RMK A01 T03030087  RH  026%=      5-min Rain = 0
KCL1 242244Z 18010KT 30/09 A2995 RMK A01 T03020086  RH  026%=      5-min Rain = 0
KCL1 242245Z 17009KT 30/09 A2995 RMK A01 T03020086  RH  026%=      5-min Rain = 0
KCL1 242246Z 17006KT 30/09 A2995 RMK A01 T03000086  RH  026%=      5-min Rain = 0
KCL1 242247Z 16006KT 30/09 A2995 RMK A01 T03000089  RH  027%=      5-min Rain = 0
KCL1 242248Z 17004KT 30/09 A2995 RMK A01 T03000087  RH  026%=      5-min Rain = 0
KCL1 242249Z 17008KT 30/09 A2995 RMK A01 T02990086  RH  026%=      5-min Rain = 0
KCL1 242250Z 16011KT 30/09 A2995 RMK A01 T02980088  RH  027%=      5-min Rain = 0
KCL1 242251Z 17010KT 30/09 A2995 RMK A01 T02980087  RH  027%=      5-min Rain = 0
KCL1 242252Z 16010KT 30/09 A2995 RMK A01 T02970088  RH  027%=      5-min Rain = 0
KCL1 242253Z 16008KT 30/09 A2995 RMK A01 T02980091  RH  028%=      5-min Rain = 0
KCL1 242254Z 15007KT 30/10 A2995 RMK A01 T02990095  RH  028%=      5-min Rain = 0
KCL1 242255Z 15010KT 30/10 A2995 RMK A01 T03010097  RH  028%=      5-min Rain = 0
KCL1 242256Z 15011KT 30/09 A2995 RMK A01 T03020092  RH  027%=      5-min Rain = 0
KCL1 242257Z 13011KT 30/09 A2995 RMK A01 T03010091  RH  027%=      5-min Rain = 0
KCL1 242258Z 15009KT 30/09 A2995 RMK A01 T03000090  RH  027%=      5-min Rain = 0
KCL1 242259Z 16009KT 30/09 A2995 RMK A01 T02990092  RH  028%=      5-min Rain = 0
KCL1 242300Z 15009KT 30/09 A2995 RMK A01 T03010090  RH  027%=      5-min Rain = 0
KCL1 242301Z 13009KT 30/09 A2995 RMK A01 T03020091  RH  027%=      5-min Rain = 0
KCL1 242302Z 14006KT 30/09 A2995 RMK A01 T03010087  RH  026%=      5-min Rain = 0
KCL1 242303Z 15006KT 30/09 A2995 RMK A01 T03000091  RH  027%=      5-min Rain = 0
KCL1 242304Z 16007KT 30/09 A2994 RMK A01 T03000089  RH  027%=      5-min Rain = 0
KCL1 242305Z 17006KT 30/09 A2994 RMK A01 T02990086  RH  026%=      5-min Rain = 0
KCL1 242306Z 15008KT 30/09 A2994 RMK A01 T02970089  RH  027%=      5-min Rain = 0
KCL1 242307Z 15010KT 30/09 A2994 RMK A01 T02970088  RH  027%=      5-min Rain = 0
KCL1 242308Z 13009KT 30/09 A2994 RMK A01 T02970089  RH  027%=      5-min Rain = 0
KCL1 242309Z 13007KT 30/09 A2994 RMK A01 T02960089  RH  027%=      5-min Rain = 0
KCL1 242310Z 13008KT 30/09 A2994 RMK A01 T02980092  RH  028%=      5-min Rain = 0
KCL1 242311Z 16005KT 30/09 A2994 RMK A01 T02990093  RH  028%=      5-min Rain = 0
KCL1 242312Z 16008G13KT 30/10 A2994 RMK A01 T03000095  RH  028%=      5-min Rain = 0
KCL1 242313Z 16008KT 30/09 A2994 RMK A01 T03010093  RH  027%=      5-min Rain = 0
KCL1 242314Z 16008KT 30/10 A2994 RMK A01 T03000095  RH  028%=      5-min Rain = 0
KCL1 242315Z 17006KT 30/09 A2994 RMK A01 T03000089  RH  027%=      5-min Rain = 0
KCL1 242316Z 17007KT 30/09 A2994 RMK A01 T02980089  RH  027%=      5-min Rain = 0
KCL1 242317Z 16009KT 30/09 A2994 RMK A01 T02970091  RH  028%=      5-min Rain = 0
KCL1 242318Z 16006KT 30/09 A2994 RMK A01 T02970094  RH  028%=      5-min Rain = 0
KCL1 242319Z 16010KT 30/09 A2994 RMK A01 T02970092  RH  028%=      5-min Rain = 0
KCL1 242320Z 17012KT 30/09 A2994 RMK A01 T02970092  RH  028%=      5-min Rain = 0
KCL1 242321Z 15008KT 30/09 A2994 RMK A01 T02960092  RH  028%=      5-min Rain = 0
KCL1 242322Z 16006KT 30/09 A2994 RMK A01 T02960092  RH  028%=      5-min Rain = 0
KCL1 242323Z 15006KT 30/09 A2994 RMK A01 T02950093  RH  028%=      5-min Rain = 0
KCL1 242324Z 14007KT 30/10 A2994 RMK A01 T02960095  RH  029%=      5-min Rain = 0
KCL1 242325Z 12006KT 30/10 A2993 RMK A01 T02970096  RH  029%=      5-min Rain = 0
KCL1 242326Z 13007KT 30/09 A2993 RMK A01 T02980092  RH  028%=      5-min Rain = 0
KCL1 242327Z 16008KT 30/10 A2993 RMK A01 T02980097  RH  029%=      5-min Rain = 0
KCL1 242328Z 19008KT 30/10 A2993 RMK A01 T02980095  RH  028%=      5-min Rain = 0
KCL1 242329Z 19005KT 30/09 A2993 RMK A01 T02990092  RH  028%=      5-min Rain = 0
KCL1 242330Z 17006G12KT 30/10 A2993 RMK A01 T03000095  RH  028%=      5-min Rain = 0
KCL1 242331Z 15009KT 30/09 A2993 RMK A01 T03000094  RH  028%=      5-min Rain = 0
KCL1 242332Z 16008KT 30/10 A2993 RMK A01 T02990095  RH  028%=      5-min Rain = 0
KCL1 242333Z 15010KT 30/10 A2993 RMK A01 T02980096  RH  028%=      5-min Rain = 0
KCL1 242334Z 16008KT 30/10 A2993 RMK A01 T02970095  RH  029%=      5-min Rain = 0
KCL1 242335Z 15009KT 30/10 A2993 RMK A01 T02960096  RH  029%=      5-min Rain = 0
KCL1 242336Z 16008KT 30/09 A2993 RMK A01 T02960093  RH  028%=      5-min Rain = 0
KCL1 242337Z 15008KT 30/10 A2993 RMK A01 T02950095  RH  029%=      5-min Rain = 0
KCL1 242338Z 15006KT 30/09 A2993 RMK A01 T02950094  RH  029%=      5-min Rain = 0
KCL1 242339Z 15004KT 30/10 A2993 RMK A01 T02950096  RH  029%=      5-min Rain = 0
KCL1 242340Z 14005KT 30/10 A2993 RMK A01 T02960095  RH  029%=      5-min Rain = 0
KCL1 242341Z 15007KT 30/09 A2993 RMK A01 T02960094  RH  028%=      5-min Rain = 0
KCL1 242342Z 15007KT 30/10 A2993 RMK A01 T02960098  RH  029%=      5-min Rain = 0
KCL1 242343Z 17006KT 30/10 A2993 RMK A01 T02970099  RH  029%=      5-min Rain = 0
KCL1 242344Z 18007KT 30/10 A2993 RMK A01 T02980095  RH  028%=      5-min Rain = 0
KCL1 242345Z 17006KT 30/09 A2993 RMK A01 T02970093  RH  028%=      5-min Rain = 0
KCL1 242346Z 15009KT 30/10 A2993 RMK A01 T02970096  RH  029%=      5-min Rain = 0
KCL1 242347Z 14008KT 30/10 A2993 RMK A01 T02970099  RH  029%=      5-min Rain = 0
KCL1 242348Z 14008KT 30/10 A2993 RMK A01 T02970096  RH  029%=      5-min Rain = 0
KCL1 242349Z 16009KT 30/10 A2993 RMK A01 T02970098  RH  029%=      5-min Rain = 0
KCL1 242350Z 16007KT 30/10 A2993 RMK A01 T02960096  RH  029%=      5-min Rain = 0
KCL1 242351Z 15007KT 30/10 A2993 RMK A01 T02950096  RH  029%=      5-min Rain = 0
KCL1 242352Z 15008KT 30/10 A2993 RMK A01 T02950097  RH  029%=      5-min Rain = 0
KCL1 242353Z 14006KT 30/09 A2993 RMK A01 T02950093  RH  028%=      5-min Rain = 0
KCL1 242354Z 13005KT 29/10 A2993 RMK A01 T02940096  RH  029%=      5-min Rain = 0
KCL1 242355Z 12006KT 29/10 A2993 RMK A01 T02940099  RH  030%=      5-min Rain = 0
KCL1 242356Z 12005KT 30/10 A2993 RMK A01 T02960096  RH  029%=      5-min Rain = 0
KCL1 242357Z 12004KT 30/09 A2993 RMK A01 T02960094  RH  028%=      5-min Rain = 0
KCL1 242358Z 16004KT 30/10 A2993 RMK A01 T02960096  RH  029%=      5-min Rain = 0
KCL1 242359Z 17005KT 30/10 A2993 RMK A01 T02960098  RH  029%=      5-min Rain = 0
KCL1 250000Z 18005KT 30/10 A2993 RMK A01 T02970096  RH  029%=      5-min Rain = 0
KCL1 250001Z 18007KT 30/10 A2993 RMK A01 T02970098  RH  029%=      5-min Rain = 0
KCL1 250002Z 19009KT 30/10 A2993 RMK A01 T02980097  RH  029%=      5-min Rain = 0
KCL1 250003Z 17007KT 30/10 A2993 RMK A01 T02980097  RH  029%=      5-min Rain = 0
KCL1 250004Z 17006KT 30/10 A2993 RMK A01 T02980102  RH  030%=      5-min Rain = 0
KCL1 250005Z 17008KT 30/10 A2992 RMK A01 T02980101  RH  030%=      5-min Rain = 0
KCL1 250006Z 16008KT 30/10 A2992 RMK A01 T02970100  RH  029%=      5-min Rain = 0
KCL1 250007Z 16008KT 30/10 A2992 RMK A01 T02960097  RH  029%=      5-min Rain = 0
KCL1 250008Z 16006KT 29/10 A2992 RMK A01 T02940098  RH  030%=      5-min Rain = 0
KCL1 250009Z 16006KT 29/10 A2992 RMK A01 T02940101  RH  030%=      5-min Rain = 0
KCL1 250010Z 16007KT 29/10 A2992 RMK A01 T02940103  RH  030%=      5-min Rain = 0
KCL1 250011Z 16009KT 29/10 A2992 RMK A01 T02940098  RH  030%=      5-min Rain = 0
KCL1 250012Z 17007KT 29/10 A2992 RMK A01 T02930096  RH  029%=      5-min Rain = 0
KCL1 250013Z 17007KT 29/10 A2992 RMK A01 T02920095  RH  029%=      5-min Rain = 0
KCL1 250014Z 15007KT 29/10 A2992 RMK A01 T02910098  RH  030%=      5-min Rain = 0
KCL1 250015Z 13006G11KT 29/10 A2992 RMK A01 T02920101  RH  031%=      5-min Rain = 0
KCL1 250016Z 12011KT 29/10 A2992 RMK A01 T02920101  RH  030%=      5-min Rain = 0
KCL1 250017Z 13008KT 29/10 A2992 RMK A01 T02920101  RH  031%=      5-min Rain = 0
KCL1 250018Z 14006KT 29/10 A2992 RMK A01 T02920101  RH  030%=      5-min Rain = 0
KCL1 250019Z 14006KT 29/11 A2993 RMK A01 T02920105  RH  031%=      5-min Rain = 0
KCL1 250020Z 13009KT 29/11 A2993 RMK A01 T02920106  RH  031%=      5-min Rain = 0
KCL1 250021Z 14009KT 29/11 A2993 RMK A01 T02920106  RH  031%=      5-min Rain = 0
KCL1 250022Z 13011KT 29/10 A2993 RMK A01 T02920103  RH  031%=      5-min Rain = 0
KCL1 250023Z 15009KT 29/10 A2993 RMK A01 T02910102  RH  031%=      5-min Rain = 0
KCL1 250024Z 14010KT 29/10 A2993 RMK A01 T02900104  RH  031%=      5-min Rain = 0
KCL1 250025Z 13008KT 29/11 A2993 RMK A01 T02900105  RH  032%=      5-min Rain = 0
KCL1 250026Z 13008KT 29/11 A2993 RMK A01 T02900106  RH  032%=      5-min Rain = 0
KCL1 250027Z 13009KT 29/11 A2993 RMK A01 T02900107  RH  032%=      5-min Rain = 0
KCL1 250028Z 12009KT 29/11 A2993 RMK A01 T02900107  RH  032%=      5-min Rain = 0
KCL1 250029Z 12011KT 29/11 A2993 RMK A01 T02890106  RH  032%=      5-min Rain = 0
KCL1 250030Z 11011KT 29/11 A2993 RMK A01 T02890105  RH  032%=      5-min Rain = 0
KCL1 250031Z 11009KT 29/11 A2993 RMK A01 T02880105  RH  032%=      5-min Rain = 0
KCL1 250032Z 12008KT 29/11 A2993 RMK A01 T02880107  RH  033%=      5-min Rain = 0
KCL1 250033Z 13008KT 29/11 A2993 RMK A01 T02870110  RH  033%=      5-min Rain = 0
KCL1 250034Z 13010KT 29/11 A2993 RMK A01 T02870108  RH  033%=      5-min Rain = 0
KCL1 250035Z 13009KT 29/11 A2993 RMK A01 T02870107  RH  033%=      5-min Rain = 0
KCL1 250036Z 14011KT 29/11 A2993 RMK A01 T02870107  RH  033%=      5-min Rain = 0
KCL1 250037Z 13009KT 29/11 A2993 RMK A01 T02870108  RH  033%=      5-min Rain = 0
KCL1 250038Z 14008KT 29/11 A2993 RMK A01 T02860110  RH  033%=      5-min Rain = 0
KCL1 250039Z 13007KT 29/11 A2993 RMK A01 T02860109  RH  033%=      5-min Rain = 0
KCL1 250040Z 13008KT 29/11 A2993 RMK A01 T02860110  RH  034%=      5-min Rain = 0
KCL1 250041Z 12009KT 29/11 A2993 RMK A01 T02860109  RH  033%=      5-min Rain = 0
KCL1 250042Z 13011KT 29/11 A2993 RMK A01 T02850107  RH  033%=      5-min Rain = 0
KCL1 250043Z 13009KT 29/11 A2993 RMK A01 T02850106  RH  033%=      5-min Rain = 0
KCL1 250044Z 13010KT 28/11 A2992 RMK A01 T02840106  RH  033%=      5-min Rain = 0
KCL1 250045Z 13010KT 28/11 A2992 RMK A01 T02840106  RH  033%=      5-min Rain = 0
KCL1 250046Z 13011KT 28/11 A2992 RMK A01 T02840106  RH  033%=      5-min Rain = 0
KCL1 250047Z 15008KT 28/11 A2992 RMK A01 T02830108  RH  034%=      5-min Rain = 0
KCL1 250048Z 15008KT 28/11 A2992 RMK A01 T02830107  RH  033%=      5-min Rain = 0
KCL1 250049Z 14008KT 28/11 A2993 RMK A01 T02830108  RH  034%=      5-min Rain = 0
KCL1 250050Z 14009KT 28/11 A2993 RMK A01 T02830109  RH  034%=      5-min Rain = 0
KCL1 250051Z 13007KT 28/11 A2993 RMK A01 T02820108  RH  034%=      5-min Rain = 0
KCL1 250052Z 13007KT 28/11 A2992 RMK A01 T02820111  RH  034%=      5-min Rain = 0
KCL1 250053Z 13008KT 28/11 A2992 RMK A01 T02820111  RH  034%=      5-min Rain = 0
KCL1 250054Z 13007KT 28/11 A2992 RMK A01 T02820111  RH  035%=      5-min Rain = 0
KCL1 250055Z 13007KT 28/11 A2992 RMK A01 T02810112  RH  035%=      5-min Rain = 0
KCL1 250056Z 13008KT 28/11 A2993 RMK A01 T02810111  RH  035%=      5-min Rain = 0
KCL1 250057Z 13009KT 28/11 A2993 RMK A01 T02800111  RH  035%=      5-min Rain = 0
KCL1 250058Z 14009KT 28/11 A2993 RMK A01 T02800109  RH  035%=      5-min Rain = 0
KCL1 250059Z 13008KT 28/11 A2993 RMK A01 T02790110  RH  035%=      5-min Rain = 0
KCL1 250100Z 13008KT 28/11 A2993 RMK A01 T02790110  RH  035%=      5-min Rain = 0
KCL1 250101Z 14008KT 28/11 A2993 RMK A01 T02790112  RH  035%=      5-min Rain = 0
KCL1 250102Z 13010KT 28/11 A2993 RMK A01 T02790112  RH  035%=      5-min Rain = 0
KCL1 250103Z 13010KT 28/11 A2993 RMK A01 T02780113  RH  036%=      5-min Rain = 0
KCL1 250104Z 13010KT 28/11 A2993 RMK A01 T02780112  RH  036%=      5-min Rain = 0
KCL1 250105Z 14010KT 28/11 A2993 RMK A01 T02770111  RH  036%=      5-min Rain = 0
KCL1 250106Z 14012KT 28/11 A2993 RMK A01 T02770111  RH  035%=      5-min Rain = 0
KCL1 250107Z 13009KT 28/11 A2993 RMK A01 T02770110  RH  035%=      5-min Rain = 0
KCL1 250108Z 13010KT 28/11 A2993 RMK A01 T02760112  RH  036%=      5-min Rain = 0
KCL1 250109Z 13007KT 28/11 A2993 RMK A01 T02760112  RH  036%=      5-min Rain = 0
KCL1 250110Z 13008KT 28/11 A2993 RMK A01 T02750113  RH  036%=      5-min Rain = 0
KCL1 250111Z 13008KT 28/11 A2993 RMK A01 T02750114  RH  037%=      5-min Rain = 0
KCL1 250112Z 13008KT 27/12 A2993 RMK A01 T02740115  RH  037%=      5-min Rain = 0
KCL1 250113Z 13007KT 27/11 A2993 RMK A01 T02740114  RH  037%=      5-min Rain = 0
KCL1 250114Z 13009KT 27/11 A2993 RMK A01 T02730114  RH  037%=      5-min Rain = 0
KCL1 250115Z 13008KT 27/11 A2993 RMK A01 T02720114  RH  037%=      5-min Rain = 0
KCL1 250116Z 14008KT 27/11 A2993 RMK A01 T02720114  RH  037%=      5-min Rain = 0
KCL1 250117Z 13007KT 27/12 A2993 RMK A01 T02720115  RH  038%=      5-min Rain = 0
KCL1 250118Z 13008KT 27/12 A2993 RMK A01 T02710115  RH  038%=      5-min Rain = 0
KCL1 250119Z 13007KT 27/12 A2993 RMK A01 T02700116  RH  038%=      5-min Rain = 0
KCL1 250120Z 14009KT 27/12 A2993 RMK A01 T02700116  RH  038%=      5-min Rain = 0
KCL1 250121Z 13011KT 27/12 A2993 RMK A01 T02690115  RH  038%=      5-min Rain = 0
KCL1 250122Z 13010KT 27/12 A2993 RMK A01 T02690115  RH  038%=      5-min Rain = 0
KCL1 250123Z 13009KT 27/12 A2993 RMK A01 T02690116  RH  039%=      5-min Rain = 0
KCL1 250124Z 13009KT 27/12 A2993 RMK A01 T02680116  RH  039%=      5-min Rain = 0
KCL1 250125Z 13010KT 27/12 A2993 RMK A01 T02680116  RH  039%=      5-min Rain = 0
KCL1 250126Z 13009KT 27/12 A2993 RMK A01 T02670116  RH  039%=      5-min Rain = 0
KCL1 250127Z 13011KT 27/12 A2993 RMK A01 T02670115  RH  039%=      5-min Rain = 0
KCL1 250128Z 13009KT 27/11 A2993 RMK A01 T02670114  RH  039%=      5-min Rain = 0
KCL1 250129Z 12009KT 27/12 A2993 RMK A01 T02670116  RH  039%=      5-min Rain = 0
KCL1 250130Z 13009KT 27/12 A2993 RMK A01 T02660116  RH  039%=      5-min Rain = 0
KCL1 250131Z 13008KT 27/12 A2993 RMK A01 T02650117  RH  040%=      5-min Rain = 0
KCL1 250132Z 13008KT 26/12 A2994 RMK A01 T02640117  RH  040%=      5-min Rain = 0
KCL1 250133Z 13010KT 26/12 A2994 RMK A01 T02630117  RH  040%=      5-min Rain = 0
KCL1 250134Z 13011KT 26/12 A2994 RMK A01 T02630116  RH  040%=      5-min Rain = 0
KCL1 250135Z 13011KT 26/12 A2994 RMK A01 T02630116  RH  040%=      5-min Rain = 0
KCL1 250136Z 13010KT 26/12 A2994 RMK A01 T02630116  RH  040%=      5-min Rain = 0
KCL1 250137Z 13009KT 26/12 A2994 RMK A01 T02620116  RH  040%=      5-min Rain = 0
KCL1 250138Z 13009KT 26/12 A2994 RMK A01 T02620116  RH  040%=      5-min Rain = 0
KCL1 250139Z 13010KT 26/12 A2994 RMK A01 T02610116  RH  040%=      5-min Rain = 0
KCL1 250140Z 13010KT 26/12 A2994 RMK A01 T02600116  RH  040%=      5-min Rain = 0
KCL1 250141Z 13011KT 26/12 A2994 RMK A01 T02600116  RH  040%=      5-min Rain = 0
KCL1 250142Z 13011KT 26/12 A2994 RMK A01 T02600115  RH  040%=      5-min Rain = 0
KCL1 250143Z 13010KT 26/12 A2994 RMK A01 T02600115  RH  040%=      5-min Rain = 0
KCL1 250144Z 13009KT 26/12 A2994 RMK A01 T02590115  RH  041%=      5-min Rain = 0
KCL1 250145Z 13008KT 26/12 A2994 RMK A01 T02590116  RH  041%=      5-min Rain = 0
KCL1 250146Z 13010KT 26/12 A2994 RMK A01 T02580116  RH  041%=      5-min Rain = 0
KCL1 250147Z 13010KT 26/12 A2994 RMK A01 T02570116  RH  041%=      5-min Rain = 0
KCL1 250148Z 13010KT 26/12 A2994 RMK A01 T02560115  RH  041%=      5-min Rain = 0
KCL1 250149Z 13010KT 26/12 A2994 RMK A01 T02570115  RH  041%=      5-min Rain = 0
KCL1 250150Z 13011KT 26/12 A2994 RMK A01 T02560115  RH  041%=      5-min Rain = 0
KCL1 250151Z 13009KT 26/11 A2994 RMK A01 T02560114  RH  041%=      5-min Rain = 0
KCL1 250152Z 13010KT 26/12 A2994 RMK A01 T02560115  RH  041%=      5-min Rain = 0
KCL1 250153Z 13009KT 26/12 A2994 RMK A01 T02560115  RH  041%=      5-min Rain = 0
KCL1 250154Z 13010KT 26/12 A2994 RMK A01 T02560115  RH  041%=      5-min Rain = 0
KCL1 250155Z 13011KT 26/12 A2994 RMK A01 T02550115  RH  042%=      5-min Rain = 0
KCL1 250156Z 14011KT 26/12 A2994 RMK A01 T02550115  RH  042%=      5-min Rain = 0
KCL1 250157Z 13011KT 26/12 A2994 RMK A01 T02550115  RH  042%=      5-min Rain = 0
KCL1 250158Z 13011KT 26/12 A2994 RMK A01 T02550115  RH  041%=      5-min Rain = 0
KCL1 250159Z 13011KT 26/12 A2994 RMK A01 T02550115  RH  041%=      5-min Rain = 0
KCL1 250200Z 13010G15KT 26/12 A2994 RMK A01 T02550115  RH  042%=      5-min Rain = 0
KCL1 250201Z 13013KT 26/12 A2994 RMK A01 T02550115  RH  042%=      5-min Rain = 0
KCL1 250202Z 13011KT 26/12 A2995 RMK A01 T02550115  RH  041%=      5-min Rain = 0
KCL1 250203Z 13012KT 26/12 A2995 RMK A01 T02550115  RH  042%=      5-min Rain = 0
KCL1 250204Z 13015KT 26/12 A2995 RMK A01 T02550116  RH  042%=      5-min Rain = 0
KCL1 250205Z 13014KT 26/12 A2995 RMK A01 T02550116  RH  042%=      5-min Rain = 0
KCL1 250206Z 14013KT 26/12 A2995 RMK A01 T02560117  RH  042%=      5-min Rain = 0
KCL1 250207Z 13013KT 26/12 A2994 RMK A01 T02560117  RH  042%=      5-min Rain = 0
KCL1 250208Z 13011KT 26/12 A2995 RMK A01 T02560117  RH  042%=      5-min Rain = 0
KCL1 250209Z 14011KT 26/12 A2995 RMK A01 T02560118  RH  042%=      5-min Rain = 0
KCL1 250210Z 13012KT 26/12 A2994 RMK A01 T02550117  RH  042%=      5-min Rain = 0
KCL1 250211Z 13011KT 26/12 A2994 RMK A01 T02550118  RH  042%=      5-min Rain = 0
KCL1 250212Z 13011KT 26/12 A2994 RMK A01 T02550118  RH  042%=      5-min Rain = 0
KCL1 250213Z 13011KT 25/12 A2995 RMK A01 T02540119  RH  043%=      5-min Rain = 0
KCL1 250214Z 14012KT 25/12 A2994 RMK A01 T02530119  RH  043%=      5-min Rain = 0
KCL1 250215Z 13014KT 25/12 A2995 RMK A01 T02530119  RH  043%=      5-min Rain = 0
KCL1 250216Z 14011KT 25/12 A2995 RMK A01 T02530119  RH  043%=      5-min Rain = 0
KCL1 250217Z 13010KT 25/12 A2995 RMK A01 T02530119  RH  043%=      5-min Rain = 0
KCL1 250218Z 14011KT 25/12 A2994 RMK A01 T02530120  RH  043%=      5-min Rain = 0
KCL1 250219Z 14011KT 25/12 A2995 RMK A01 T02520120  RH  044%=      5-min Rain = 0
KCL1 250220Z 13010KT 25/12 A2995 RMK A01 T02520121  RH  044%=      5-min Rain = 0
KCL1 250221Z 13009KT 25/12 A2995 RMK A01 T02510121  RH  044%=      5-min Rain = 0
KCL1 250222Z 13008KT 25/12 A2995 RMK A01 T02500122  RH  045%=      5-min Rain = 0
KCL1 250223Z 13009KT 25/12 A2995 RMK A01 T02490122  RH  045%=      5-min Rain = 0
KCL1 250224Z 13011KT 25/12 A2995 RMK A01 T02480122  RH  045%=      5-min Rain = 0
KCL1 250225Z 13010KT 25/12 A2995 RMK A01 T02480122  RH  045%=      5-min Rain = 0
KCL1 250226Z 13009KT 25/12 A2995 RMK A01 T02480122  RH  045%=      5-min Rain = 0
KCL1 250227Z 14010KT 25/12 A2995 RMK A01 T02480123  RH  046%=      5-min Rain = 0
KCL1 250228Z 13009KT 25/12 A2995 RMK A01 T02480123  RH  046%=      5-min Rain = 0
KCL1 250229Z 14009KT 25/12 A2995 RMK A01 T02480124  RH  046%=      5-min Rain = 0
KCL1 250230Z 13008KT 25/12 A2995 RMK A01 T02480124  RH  046%=      5-min Rain = 0
KCL1 250231Z 13011KT 25/12 A2994 RMK A01 T02470124  RH  046%=      5-min Rain = 0
KCL1 250232Z 14009KT 25/13 A2995 RMK A01 T02470125  RH  046%=      5-min Rain = 0
KCL1 250233Z 14008KT 25/13 A2995 RMK A01 T02470125  RH  046%=      5-min Rain = 0
KCL1 250234Z 14008KT 25/13 A2995 RMK A01 T02460125  RH  047%=      5-min Rain = 0
KCL1 250235Z 14008KT 25/13 A2995 RMK A01 T02460125  RH  047%=      5-min Rain = 0
KCL1 250236Z 14008KT 25/13 A2995 RMK A01 T02460126  RH  047%=      5-min Rain = 0
KCL1 250237Z 14008KT 25/13 A2995 RMK A01 T02450126  RH  047%=      5-min Rain = 0
KCL1 250238Z 13007KT 24/13 A2995 RMK A01 T02440126  RH  048%=      5-min Rain = 0
KCL1 250239Z 14008KT 24/13 A2995 RMK A01 T02430127  RH  048%=      5-min Rain = 0
KCL1 250240Z 13009KT 24/13 A2995 RMK A01 T02430128  RH  048%=      5-min Rain = 0
KCL1 250241Z 14010KT 24/13 A2995 RMK A01 T02430128  RH  049%=      5-min Rain = 0
KCL1 250242Z 14011KT 24/13 A2995 RMK A01 T02430129  RH  049%=      5-min Rain = 0
KCL1 250243Z 14010G15KT 24/13 A2995 RMK A01 T02440130  RH  049%=      5-min Rain = 0
KCL1 250244Z 13009G15KT 25/13 A2995 RMK A01 T02450131  RH  049%=      5-min Rain = 0
KCL1 250245Z 13012KT 25/13 A2995 RMK A01 T02450131  RH  049%=      5-min Rain = 0
KCL1 250246Z 14010KT 25/13 A2995 RMK A01 T02450132  RH  049%=      5-min Rain = 0
KCL1 250247Z 13010KT 24/13 A2995 RMK A01 T02440132  RH  049%=      5-min Rain = 0
KCL1 250248Z 14013KT 25/13 A2995 RMK A01 T02450133  RH  050%=      5-min Rain = 0
KCL1 250249Z 13009KT 25/13 A2995 RMK A01 T02450133  RH  050%=      5-min Rain = 0
KCL1 250250Z 14010KT 25/13 A2995 RMK A01 T02450134  RH  050%=      5-min Rain = 0
KCL1 250251Z 14010G17KT 25/13 A2995 RMK A01 T02450134  RH  050%=      5-min Rain = 0
KCL1 250252Z 13011KT 25/13 A2995 RMK A01 T02450134  RH  050%=      5-min Rain = 0
KCL1 250253Z 14012KT 25/14 A2995 RMK A01 T02450135  RH  050%=      5-min Rain = 0
KCL1 250254Z 13011KT 25/14 A2995 RMK A01 T02450135  RH  050%=      5-min Rain = 0
KCL1 250255Z 13011KT 24/14 A2995 RMK A01 T02440136  RH  051%=      5-min Rain = 0
KCL1 250256Z 13009KT 24/14 A2995 RMK A01 T02440136  RH  051%=      5-min Rain = 0
KCL1 250257Z 13009KT 24/14 A2995 RMK A01 T02430137  RH  051%=      5-min Rain = 0
KCL1 250258Z 13010KT 24/14 A2995 RMK A01 T02420137  RH  052%=      5-min Rain = 0
KCL1 250259Z 13010KT 24/14 A2995 RMK A01 T02410137  RH  052%=      5-min Rain = 0
KCL1 250300Z 13011KT 24/14 A2995 RMK A01 T02410137  RH  052%=      5-min Rain = 0
KCL1 250301Z 13011KT 24/14 A2995 RMK A01 T02410138  RH  052%=      5-min Rain = 0
KCL1 250302Z 13010KT 24/14 A2995 RMK A01 T02410138  RH  052%=      5-min Rain = 0
KCL1 250303Z 13011KT 24/14 A2995 RMK A01 T02410139  RH  053%=      5-min Rain = 0
KCL1 250304Z 13011KT 24/14 A2995 RMK A01 T02420139  RH  053%=      5-min Rain = 0
KCL1 250305Z 13012KT 24/14 A2995 RMK A01 T02420140  RH  053%=      5-min Rain = 0
KCL1 250306Z 13012KT 24/14 A2995 RMK A01 T02430141  RH  053%=      5-min Rain = 0
KCL1 250307Z 13009KT 24/14 A2995 RMK A01 T02430141  RH  053%=      5-min Rain = 0
KCL1 250308Z 13012KT 24/14 A2995 RMK A01 T02430141  RH  053%=      5-min Rain = 0
KCL1 250309Z 13011KT 24/14 A2995 RMK A01 T02420141  RH  053%=      5-min Rain = 0
KCL1 250310Z 13012KT 24/14 A2995 RMK A01 T02420141  RH  053%=      5-min Rain = 0
KCL1 250311Z 13010KT 24/14 A2995 RMK A01 T02430142  RH  053%=      5-min Rain = 0
KCL1 250312Z 12009KT 24/14 A2995 RMK A01 T02420142  RH  053%=      5-min Rain = 0
KCL1 250313Z 13012KT 24/14 A2995 RMK A01 T02410142  RH  054%=      5-min Rain = 0
KCL1 250314Z 13010KT 24/14 A2995 RMK A01 T02410143  RH  054%=      5-min Rain = 0
KCL1 250315Z 13009KT 24/14 A2995 RMK A01 T02410143  RH  054%=      5-min Rain = 0
KCL1 250316Z 13009KT 24/14 A2995 RMK A01 T02400143  RH  054%=      5-min Rain = 0
KCL1 250317Z 13012G18KT 24/14 A2995 RMK A01 T02400143  RH  055%=      5-min Rain = 0
KCL1 250318Z 13013KT 24/14 A2996 RMK A01 T02400143  RH  055%=      5-min Rain = 0
KCL1 250319Z 13011KT 24/14 A2996 RMK A01 T02400144  RH  055%=      5-min Rain = 0
KCL1 250320Z 13011KT 24/14 A2996 RMK A01 T02400144  RH  055%=      5-min Rain = 0
KCL1 250321Z 13015KT 24/14 A2996 RMK A01 T02400144  RH  055%=      5-min Rain = 0
KCL1 250322Z 13014KT 24/14 A2996 RMK A01 T02400144  RH  055%=      5-min Rain = 0
KCL1 250323Z 13012KT 24/14 A2996 RMK A01 T02410144  RH  055%=      5-min Rain = 0
KCL1 250324Z 13014KT 24/14 A2996 RMK A01 T02410144  RH  055%=      5-min Rain = 0
KCL1 250325Z 14012KT 24/14 A2996 RMK A01 T02410144  RH  055%=      5-min Rain = 0
KCL1 250326Z 13013G18KT 24/14 A2996 RMK A01 T02410144  RH  055%=      5-min Rain = 0
KCL1 250327Z 13017KT 24/14 A2996 RMK A01 T02410144  RH  055%=      5-min Rain = 0
KCL1 250328Z 14016G22KT 24/14 A2996 RMK A01 T02410144  RH  055%=      5-min Rain = 0
KCL1 250329Z 13015G20KT 24/15 A2996 RMK A01 T02420145  RH  055%=      5-min Rain = 0
KCL1 250330Z 14012KT 24/15 A2996 RMK A01 T02420145  RH  055%=      5-min Rain = 0
KCL1 250331Z 13013G18KT 24/15 A2996 RMK A01 T02410145  RH  055%=      5-min Rain = 0
KCL1 250332Z 14014KT 24/15 A2996 RMK A01 T02410145  RH  055%=      5-min Rain = 0
KCL1 250333Z 13011KT 24/15 A2996 RMK A01 T02410145  RH  055%=      5-min Rain = 0
KCL1 250334Z 13011KT 24/15 A2996 RMK A01 T02400145  RH  055%=      5-min Rain = 0
KCL1 250335Z 13010KT 24/15 A2996 RMK A01 T02390145  RH  055%=      5-min Rain = 0
KCL1 250336Z 13010KT 24/15 A2996 RMK A01 T02390145  RH  056%=      5-min Rain = 0
KCL1 250337Z 13010KT 24/14 A2996 RMK A01 T02380144  RH  056%=      5-min Rain = 0
KCL1 250338Z 13010KT 24/15 A2996 RMK A01 T02370145  RH  056%=      5-min Rain = 0
KCL1 250339Z 13010KT 24/14 A2996 RMK A01 T02370144  RH  056%=      5-min Rain = 0
KCL1 250340Z 13010KT 24/14 A2996 RMK A01 T02360144  RH  056%=      5-min Rain = 0
KCL1 250341Z 13011KT 24/14 A2996 RMK A01 T02360144  RH  056%=      5-min Rain = 0
KCL1 250342Z 13012KT 24/14 A2996 RMK A01 T02350144  RH  056%=      5-min Rain = 0
KCL1 250343Z 14014G19KT 24/14 A2996 RMK A01 T02350144  RH  056%=      5-min Rain = 0
KCL1 250344Z 14013KT 24/14 A2996 RMK A01 T02360144  RH  056%=      5-min Rain = 0
KCL1 250345Z 13010KT 24/14 A2996 RMK A01 T02370144  RH  056%=      5-min Rain = 0
KCL1 250346Z 14008G13KT 24/14 A2996 RMK A01 T02370144  RH  056%=      5-min Rain = 0
KCL1 250347Z 14013G18KT 24/14 A2996 RMK A01 T02360144  RH  056%=      5-min Rain = 0
KCL1 250348Z 13012KT 24/14 A2996 RMK A01 T02350144  RH  056%=      5-min Rain = 0
KCL1 250349Z 13012G18KT 24/14 A2996 RMK A01 T02350144  RH  056%=      5-min Rain = 0
KCL1 250350Z 13014KT 24/14 A2996 RMK A01 T02360144  RH  056%=      5-min Rain = 0
KCL1 250351Z 14013KT 24/14 A2997 RMK A01 T02360144  RH  056%=      5-min Rain = 0
KCL1 250352Z 13011KT 24/14 A2997 RMK A01 T02350144  RH  056%=      5-min Rain = 0
KCL1 250353Z 13013KT 24/15 A2997 RMK A01 T02360145  RH  057%=      5-min Rain = 0
KCL1 250354Z 13010KT 24/14 A2997 RMK A01 T02350144  RH  057%=      5-min Rain = 0
KCL1 250355Z 13011G16KT 24/15 A2997 RMK A01 T02350145  RH  057%=      5-min Rain = 0
KCL1 250356Z 13013KT 23/14 A2997 RMK A01 T02340144  RH  057%=      5-min Rain = 0
KCL1 250357Z 13013KT 23/14 A2997 RMK A01 T02340144  RH  057%=      5-min Rain = 0
KCL1 250358Z 13010KT 23/14 A2997 RMK A01 T02340144  RH  057%=      5-min Rain = 0
KCL1 250359Z 13012KT 23/14 A2997 RMK A01 T02340144  RH  057%=      5-min Rain = 0
KCL1 250400Z 13012KT 23/15 A2997 RMK A01 T02340145  RH  057%=      5-min Rain = 0
KCL1 250401Z 13013KT 23/14 A2997 RMK A01 T02330144  RH  057%=      5-min Rain = 0
KCL1 250402Z 13012KT 23/15 A2997 RMK A01 T02330145  RH  057%=      5-min Rain = 0
KCL1 250403Z 14013KT 23/15 A2997 RMK A01 T02330145  RH  058%=      5-min Rain = 0
KCL1 250404Z 14013KT 23/15 A2997 RMK A01 T02330145  RH  058%=      5-min Rain = 0
KCL1 250405Z 14012KT 23/15 A2997 RMK A01 T02330145  RH  058%=      5-min Rain = 0
KCL1 250406Z 14012KT 23/15 A2997 RMK A01 T02330145  RH  058%=      5-min Rain = 0
KCL1 250407Z 14011KT 23/15 A2997 RMK A01 T02330145  RH  058%=      5-min Rain = 0
KCL1 250408Z 13014KT 23/15 A2997 RMK A01 T02330145  RH  058%=      5-min Rain = 0
KCL1 250409Z 13014KT 23/15 A2997 RMK A01 T02330145  RH  058%=      5-min Rain = 0
KCL1 250410Z 13012G17KT 23/15 A2997 RMK A01 T02330145  RH  058%=      5-min Rain = 0
KCL1 250411Z 13014KT 23/15 A2997 RMK A01 T02330145  RH  058%=      5-min Rain = 0
KCL1 250412Z 13012KT 23/15 A2997 RMK A01 T02330145  RH  058%=      5-min Rain = 0
KCL1 250413Z 13011KT 23/15 A2997 RMK A01 T02330145  RH  058%=      5-min Rain = 0
KCL1 250414Z 13013KT 23/15 A2997 RMK A01 T02320145  RH  058%=      5-min Rain = 0
KCL1 250415Z 13011KT 23/15 A2997 RMK A01 T02320145  RH  058%=      5-min Rain = 0
KCL1 250416Z 13010KT 23/15 A2997 RMK A01 T02320145  RH  058%=      5-min Rain = 0
KCL1 250417Z 14012KT 23/15 A2997 RMK A01 T02310145  RH  059%=      5-min Rain = 0
KCL1 250418Z 13010KT 23/15 A2997 RMK A01 T02300145  RH  059%=      5-min Rain = 0
KCL1 250419Z 13012KT 23/15 A2997 RMK A01 T02300145  RH  059%=      5-min Rain = 0
KCL1 250420Z 13010KT 23/15 A2997 RMK A01 T02300146  RH  059%=      5-min Rain = 0
KCL1 250421Z 13011KT 23/15 A2997 RMK A01 T02290146  RH  059%=      5-min Rain = 0
KCL1 250422Z 13011KT 23/15 A2997 RMK A01 T02290146  RH  059%=      5-min Rain = 0
KCL1 250423Z 13011KT 23/15 A2998 RMK A01 T02290146  RH  059%=      5-min Rain = 0
KCL1 250424Z 13014KT 23/15 A2997 RMK A01 T02290146  RH  059%=      5-min Rain = 0
KCL1 250425Z 14014KT 23/15 A2998 RMK A01 T02290146  RH  059%=      5-min Rain = 0
KCL1 250426Z 14014KT 23/15 A2998 RMK A01 T02290146  RH  059%=      5-min Rain = 0
KCL1 250427Z 13014KT 23/15 A2998 RMK A01 T02300146  RH  059%=      5-min Rain = 0
KCL1 250428Z 14010KT 23/15 A2998 RMK A01 T02300146  RH  059%=      5-min Rain = 0
KCL1 250429Z 14010KT 23/15 A2998 RMK A01 T02300146  RH  059%=      5-min Rain = 0
KCL1 250430Z 13011KT 23/15 A2998 RMK A01 T02290146  RH  059%=      5-min Rain = 0
KCL1 250431Z 13010KT 23/15 A2998 RMK A01 T02290147  RH  060%=      5-min Rain = 0
KCL1 250432Z 13012KT 23/15 A2998 RMK A01 T02280147  RH  060%=      5-min Rain = 0
KCL1 250433Z 13011KT 23/15 A2998 RMK A01 T02280147  RH  060%=      5-min Rain = 0
KCL1 250434Z 13013KT 23/15 A2998 RMK A01 T02280147  RH  060%=      5-min Rain = 0
KCL1 250435Z 13012KT 23/15 A2998 RMK A01 T02270147  RH  060%=      5-min Rain = 0
KCL1 250436Z 13015KT 23/15 A2998 RMK A01 T02270147  RH  060%=      5-min Rain = 0
KCL1 250437Z 14013KT 23/15 A2997 RMK A01 T02270147  RH  061%=      5-min Rain = 0
KCL1 250438Z 13015KT 23/15 A2997 RMK A01 T02280148  RH  061%=      5-min Rain = 0
KCL1 250439Z 14015KT 23/15 A2997 RMK A01 T02280148  RH  061%=      5-min Rain = 0
KCL1 250440Z 13015KT 23/15 A2997 RMK A01 T02280149  RH  061%=      5-min Rain = 0
KCL1 250441Z 13013G18KT 23/15 A2997 RMK A01 T02280148  RH  061%=      5-min Rain = 0
KCL1 250442Z 13014G19KT 23/15 A2998 RMK A01 T02280149  RH  061%=      5-min Rain = 0
KCL1 250443Z 14014KT 23/15 A2998 RMK A01 T02280149  RH  061%=      5-min Rain = 0
KCL1 250444Z 13015KT 23/15 A2998 RMK A01 T02280149  RH  061%=      5-min Rain = 0
KCL1 250445Z 14012KT 23/15 A2998 RMK A01 T02270149  RH  061%=      5-min Rain = 0
KCL1 250446Z 14012KT 23/15 A2998 RMK A01 T02270149  RH  061%=      5-min Rain = 0
KCL1 250447Z 14013KT 23/15 A2998 RMK A01 T02260149  RH  062%=      5-min Rain = 0
KCL1 250448Z 13013KT 23/15 A2998 RMK A01 T02260149  RH  062%=      5-min Rain = 0
KCL1 250449Z 13012KT 23/15 A2998 RMK A01 T02260149  RH  062%=      5-min Rain = 0
KCL1 250450Z 13013KT 23/15 A2998 RMK A01 T02250150  RH  062%=      5-min Rain = 0
KCL1 250451Z 13017G22KT 23/15 A2998 RMK A01 T02250150  RH  062%=      5-min Rain = 0
KCL1 250452Z 13016KT 23/15 A2998 RMK A01 T02250150  RH  062%=      5-min Rain = 0
KCL1 250453Z 14012KT 23/15 A2998 RMK A01 T02260150  RH  062%=      5-min Rain = 0
KCL1 250454Z 13010KT 23/15 A2998 RMK A01 T02260150  RH  062%=      5-min Rain = 0
KCL1 250455Z 13014KT 23/15 A2998 RMK A01 T02250150  RH  063%=      5-min Rain = 0
KCL1 250456Z 13014KT 22/15 A2998 RMK A01 T02240150  RH  063%=      5-min Rain = 0
KCL1 250457Z 13012KT 22/15 A2998 RMK A01 T02240150  RH  063%=      5-min Rain = 0
KCL1 250458Z 13013KT 22/15 A2998 RMK A01 T02240151  RH  063%=      5-min Rain = 0
KCL1 250459Z 13011KT 22/15 A2998 RMK A01 T02240151  RH  063%=      5-min Rain = 0

Page generated in 0.0716 seconds.